<?xml version="1.0" encoding="UTF-8" standalone="no" ?><gpx xmlns="http://www.topografix.com/GPX/1/1" xmlns:gpxx="http://www.garmin.com/xmlschemas/GpxExtensions/v3" xmlns:wptx1="http://www.garmin.com/xmlschemas/WaypointExtension/v1" xmlns:gpxtpx="http://www.garmin.com/xmlschemas/TrackPointExtension/v1" creator="GuideVTT.com" version="1.1" xmlns:xsi="http://www.w3.org/2001/XMLSchema-instance" xsi:schemaLocation="http://www.topografix.com/GPX/1/1 http://www.topografix.com/GPX/1/1/gpx.xsd http://www.garmin.com/xmlschemas/GpxExtensions/v3 http://www8.garmin.com/xmlschemas/GpxExtensionsv3.xsd http://www.garmin.com/xmlschemas/WaypointExtension/v1 http://www8.garmin.com/xmlschemas/WaypointExtensionv1.xsd http://www.garmin.com/xmlschemas/TrackPointExtension/v1 http://www.garmin.com/xmlschemas/TrackPointExtensionv1.xsd">
<metadata><link href="http://www.garmin.com"><text>Garmin International</text></link><time>2013-06-22T15:13:50Z</time></metadata>
<trk><name>rp2025-17.gpx</name><extensions><gpxx:TrackExtension><gpxx:DisplayColor>Cyan</gpxx:DisplayColor></gpxx:TrackExtension></extensions><trkseg>
<trkpt lat="46.20644" lon="7.43966"><ele></ele><time>2025-8-26T1:12:50Z</time></trkpt>
<trkpt lat="46.20645" lon="7.43965"><ele></ele><time>2025-8-26T1:12:53Z</time></trkpt>
<trkpt lat="46.20644" lon="7.43965"><ele></ele><time>2025-8-26T1:12:56Z</time></trkpt>
<trkpt lat="46.20642" lon="7.43962"><ele></ele><time>2025-8-26T1:12:59Z</time></trkpt>
<trkpt lat="46.20641" lon="7.4396"><ele></ele><time>2025-8-26T1:13:2Z</time></trkpt>
<trkpt lat="46.20639" lon="7.43958"><ele></ele><time>2025-8-26T1:13:5Z</time></trkpt>
<trkpt lat="46.20638" lon="7.43959"><ele></ele><time>2025-8-26T1:13:8Z</time></trkpt>
<trkpt lat="46.20638" lon="7.43959"><ele></ele><time>2025-8-26T1:13:11Z</time></trkpt>
<trkpt lat="46.20635" lon="7.43957"><ele></ele><time>2025-8-26T1:13:14Z</time></trkpt>
<trkpt lat="46.20633" lon="7.43956"><ele></ele><time>2025-8-26T1:13:17Z</time></trkpt>
<trkpt lat="46.2063" lon="7.43957"><ele></ele><time>2025-8-26T1:13:20Z</time></trkpt>
<trkpt lat="46.20629" lon="7.43958"><ele></ele><time>2025-8-26T1:13:23Z</time></trkpt>
<trkpt lat="46.20629" lon="7.43958"><ele></ele><time>2025-8-26T1:13:26Z</time></trkpt>
<trkpt lat="46.20627" lon="7.43957"><ele></ele><time>2025-8-26T1:13:29Z</time></trkpt>
<trkpt lat="46.20627" lon="7.43957"><ele></ele><time>2025-8-26T1:13:32Z</time></trkpt>
<trkpt lat="46.20625" lon="7.43957"><ele></ele><time>2025-8-26T1:13:35Z</time></trkpt>
<trkpt lat="46.20624" lon="7.43955"><ele></ele><time>2025-8-26T1:13:38Z</time></trkpt>
<trkpt lat="46.20623" lon="7.43955"><ele></ele><time>2025-8-26T1:13:41Z</time></trkpt>
<trkpt lat="46.20621" lon="7.43954"><ele></ele><time>2025-8-26T1:13:44Z</time></trkpt>
<trkpt lat="46.20619" lon="7.43954"><ele></ele><time>2025-8-26T1:13:47Z</time></trkpt>
<trkpt lat="46.20617" lon="7.43955"><ele></ele><time>2025-8-26T1:13:50Z</time></trkpt>
<trkpt lat="46.20615" lon="7.43955"><ele></ele><time>2025-8-26T1:13:53Z</time></trkpt>
<trkpt lat="46.20615" lon="7.43955"><ele></ele><time>2025-8-26T1:13:56Z</time></trkpt>
<trkpt lat="46.20609" lon="7.43956"><ele></ele><time>2025-8-26T1:13:59Z</time></trkpt>
<trkpt lat="46.20609" lon="7.43957"><ele></ele><time>2025-8-26T1:14:2Z</time></trkpt>
<trkpt lat="46.20608" lon="7.43957"><ele></ele><time>2025-8-26T1:14:5Z</time></trkpt>
<trkpt lat="46.20604" lon="7.43957"><ele></ele><time>2025-8-26T1:14:8Z</time></trkpt>
<trkpt lat="46.20602" lon="7.43957"><ele></ele><time>2025-8-26T1:14:11Z</time></trkpt>
<trkpt lat="46.20602" lon="7.43957"><ele></ele><time>2025-8-26T1:14:14Z</time></trkpt>
<trkpt lat="46.20603" lon="7.43959"><ele></ele><time>2025-8-26T1:14:17Z</time></trkpt>
<trkpt lat="46.20602" lon="7.43959"><ele></ele><time>2025-8-26T1:14:20Z</time></trkpt>
<trkpt lat="46.206" lon="7.43958"><ele></ele><time>2025-8-26T1:14:23Z</time></trkpt>
<trkpt lat="46.20599" lon="7.43959"><ele></ele><time>2025-8-26T1:14:26Z</time></trkpt>
<trkpt lat="46.20598" lon="7.43959"><ele></ele><time>2025-8-26T1:14:29Z</time></trkpt>
<trkpt lat="46.20595" lon="7.43961"><ele></ele><time>2025-8-26T1:14:32Z</time></trkpt>
<trkpt lat="46.20594" lon="7.43961"><ele></ele><time>2025-8-26T1:14:35Z</time></trkpt>
<trkpt lat="46.20593" lon="7.43962"><ele></ele><time>2025-8-26T1:14:38Z</time></trkpt>
<trkpt lat="46.2059" lon="7.43962"><ele></ele><time>2025-8-26T1:14:41Z</time></trkpt>
<trkpt lat="46.20589" lon="7.43962"><ele></ele><time>2025-8-26T1:14:44Z</time></trkpt>
<trkpt lat="46.20587" lon="7.43963"><ele></ele><time>2025-8-26T1:14:47Z</time></trkpt>
<trkpt lat="46.20586" lon="7.43963"><ele></ele><time>2025-8-26T1:14:50Z</time></trkpt>
<trkpt lat="46.20585" lon="7.43963"><ele></ele><time>2025-8-26T1:14:53Z</time></trkpt>
<trkpt lat="46.20582" lon="7.43963"><ele></ele><time>2025-8-26T1:14:56Z</time></trkpt>
<trkpt lat="46.20581" lon="7.43963"><ele></ele><time>2025-8-26T1:14:59Z</time></trkpt>
<trkpt lat="46.20579" lon="7.43964"><ele></ele><time>2025-8-26T1:15:2Z</time></trkpt>
<trkpt lat="46.20578" lon="7.43964"><ele></ele><time>2025-8-26T1:15:5Z</time></trkpt>
<trkpt lat="46.20578" lon="7.43964"><ele></ele><time>2025-8-26T1:15:8Z</time></trkpt>
<trkpt lat="46.20575" lon="7.43965"><ele></ele><time>2025-8-26T1:15:11Z</time></trkpt>
<trkpt lat="46.20575" lon="7.43967"><ele></ele><time>2025-8-26T1:15:14Z</time></trkpt>
<trkpt lat="46.20573" lon="7.43968"><ele></ele><time>2025-8-26T1:15:17Z</time></trkpt>
<trkpt lat="46.2057" lon="7.4397"><ele></ele><time>2025-8-26T1:15:20Z</time></trkpt>
<trkpt lat="46.2057" lon="7.4397"><ele></ele><time>2025-8-26T1:15:23Z</time></trkpt>
<trkpt lat="46.20569" lon="7.43972"><ele></ele><time>2025-8-26T1:15:26Z</time></trkpt>
<trkpt lat="46.20568" lon="7.43973"><ele></ele><time>2025-8-26T1:15:29Z</time></trkpt>
<trkpt lat="46.20567" lon="7.43975"><ele></ele><time>2025-8-26T1:15:32Z</time></trkpt>
<trkpt lat="46.20566" lon="7.43975"><ele></ele><time>2025-8-26T1:15:35Z</time></trkpt>
<trkpt lat="46.20565" lon="7.43975"><ele></ele><time>2025-8-26T1:15:38Z</time></trkpt>
<trkpt lat="46.20563" lon="7.43976"><ele></ele><time>2025-8-26T1:15:41Z</time></trkpt>
<trkpt lat="46.20561" lon="7.43979"><ele></ele><time>2025-8-26T1:15:44Z</time></trkpt>
<trkpt lat="46.20561" lon="7.43979"><ele></ele><time>2025-8-26T1:15:47Z</time></trkpt>
<trkpt lat="46.2056" lon="7.43982"><ele></ele><time>2025-8-26T1:15:50Z</time></trkpt>
<trkpt lat="46.2056" lon="7.43982"><ele></ele><time>2025-8-26T1:15:53Z</time></trkpt>
<trkpt lat="46.20559" lon="7.43984"><ele></ele><time>2025-8-26T1:15:56Z</time></trkpt>
<trkpt lat="46.20559" lon="7.43984"><ele></ele><time>2025-8-26T1:15:59Z</time></trkpt>
<trkpt lat="46.20559" lon="7.43986"><ele></ele><time>2025-8-26T1:16:2Z</time></trkpt>
<trkpt lat="46.2056" lon="7.43986"><ele></ele><time>2025-8-26T1:16:5Z</time></trkpt>
<trkpt lat="46.20561" lon="7.43987"><ele></ele><time>2025-8-26T1:16:8Z</time></trkpt>
<trkpt lat="46.20561" lon="7.43988"><ele></ele><time>2025-8-26T1:16:11Z</time></trkpt>
<trkpt lat="46.20561" lon="7.4399"><ele></ele><time>2025-8-26T1:16:14Z</time></trkpt>
<trkpt lat="46.20563" lon="7.43992"><ele></ele><time>2025-8-26T1:16:17Z</time></trkpt>
<trkpt lat="46.20564" lon="7.43994"><ele></ele><time>2025-8-26T1:16:20Z</time></trkpt>
<trkpt lat="46.20564" lon="7.43996"><ele></ele><time>2025-8-26T1:16:23Z</time></trkpt>
<trkpt lat="46.20564" lon="7.43998"><ele></ele><time>2025-8-26T1:16:26Z</time></trkpt>
<trkpt lat="46.20565" lon="7.44001"><ele></ele><time>2025-8-26T1:16:29Z</time></trkpt>
<trkpt lat="46.20568" lon="7.44005"><ele></ele><time>2025-8-26T1:16:32Z</time></trkpt>
<trkpt lat="46.2057" lon="7.4401"><ele></ele><time>2025-8-26T1:16:35Z</time></trkpt>
<trkpt lat="46.2057" lon="7.4401"><ele></ele><time>2025-8-26T1:16:38Z</time></trkpt>
<trkpt lat="46.20571" lon="7.44014"><ele></ele><time>2025-8-26T1:16:41Z</time></trkpt>
<trkpt lat="46.20572" lon="7.44016"><ele></ele><time>2025-8-26T1:16:44Z</time></trkpt>
<trkpt lat="46.20573" lon="7.44017"><ele></ele><time>2025-8-26T1:16:47Z</time></trkpt>
<trkpt lat="46.20575" lon="7.44021"><ele></ele><time>2025-8-26T1:16:50Z</time></trkpt>
<trkpt lat="46.20575" lon="7.44022"><ele></ele><time>2025-8-26T1:16:53Z</time></trkpt>
<trkpt lat="46.20576" lon="7.44025"><ele></ele><time>2025-8-26T1:16:56Z</time></trkpt>
<trkpt lat="46.20575" lon="7.44025"><ele></ele><time>2025-8-26T1:16:59Z</time></trkpt>
<trkpt lat="46.20576" lon="7.44029"><ele></ele><time>2025-8-26T1:17:2Z</time></trkpt>
<trkpt lat="46.20576" lon="7.44029"><ele></ele><time>2025-8-26T1:17:5Z</time></trkpt>
<trkpt lat="46.20577" lon="7.44032"><ele></ele><time>2025-8-26T1:17:8Z</time></trkpt>
<trkpt lat="46.20576" lon="7.44034"><ele></ele><time>2025-8-26T1:17:11Z</time></trkpt>
<trkpt lat="46.20574" lon="7.44034"><ele></ele><time>2025-8-26T1:17:14Z</time></trkpt>
<trkpt lat="46.20573" lon="7.44033"><ele></ele><time>2025-8-26T1:17:17Z</time></trkpt>
<trkpt lat="46.2057" lon="7.44032"><ele></ele><time>2025-8-26T1:17:20Z</time></trkpt>
<trkpt lat="46.20569" lon="7.44031"><ele></ele><time>2025-8-26T1:17:23Z</time></trkpt>
<trkpt lat="46.20571" lon="7.44032"><ele></ele><time>2025-8-26T1:17:26Z</time></trkpt>
<trkpt lat="46.20571" lon="7.44033"><ele></ele><time>2025-8-26T1:17:29Z</time></trkpt>
<trkpt lat="46.2057" lon="7.44037"><ele></ele><time>2025-8-26T1:17:32Z</time></trkpt>
<trkpt lat="46.20571" lon="7.44039"><ele></ele><time>2025-8-26T1:17:35Z</time></trkpt>
<trkpt lat="46.20575" lon="7.44036"><ele></ele><time>2025-8-26T1:17:38Z</time></trkpt>
<trkpt lat="46.20572" lon="7.44033"><ele></ele><time>2025-8-26T1:17:41Z</time></trkpt>
<trkpt lat="46.20571" lon="7.44033"><ele></ele><time>2025-8-26T1:17:44Z</time></trkpt>
<trkpt lat="46.20565" lon="7.44032"><ele></ele><time>2025-8-26T1:17:47Z</time></trkpt>
<trkpt lat="46.2056" lon="7.44028"><ele></ele><time>2025-8-26T1:17:50Z</time></trkpt>
<trkpt lat="46.20556" lon="7.44027"><ele></ele><time>2025-8-26T1:17:53Z</time></trkpt>
<trkpt lat="46.20548" lon="7.44021"><ele></ele><time>2025-8-26T1:17:56Z</time></trkpt>
<trkpt lat="46.20548" lon="7.4402"><ele></ele><time>2025-8-26T1:17:59Z</time></trkpt>
<trkpt lat="46.20542" lon="7.44017"><ele></ele><time>2025-8-26T1:18:2Z</time></trkpt>
<trkpt lat="46.20539" lon="7.44016"><ele></ele><time>2025-8-26T1:18:5Z</time></trkpt>
<trkpt lat="46.20537" lon="7.44019"><ele></ele><time>2025-8-26T1:18:8Z</time></trkpt>
<trkpt lat="46.20534" lon="7.44018"><ele></ele><time>2025-8-26T1:18:11Z</time></trkpt>
<trkpt lat="46.20529" lon="7.44009"><ele></ele><time>2025-8-26T1:18:14Z</time></trkpt>
<trkpt lat="46.20524" lon="7.44005"><ele></ele><time>2025-8-26T1:18:17Z</time></trkpt>
<trkpt lat="46.20521" lon="7.44003"><ele></ele><time>2025-8-26T1:18:20Z</time></trkpt>
<trkpt lat="46.20514" lon="7.43998"><ele></ele><time>2025-8-26T1:18:23Z</time></trkpt>
<trkpt lat="46.20512" lon="7.43997"><ele></ele><time>2025-8-26T1:18:26Z</time></trkpt>
<trkpt lat="46.20502" lon="7.43993"><ele></ele><time>2025-8-26T1:18:29Z</time></trkpt>
<trkpt lat="46.20497" lon="7.43989"><ele></ele><time>2025-8-26T1:18:32Z</time></trkpt>
<trkpt lat="46.20488" lon="7.43985"><ele></ele><time>2025-8-26T1:18:35Z</time></trkpt>
<trkpt lat="46.20482" lon="7.43982"><ele></ele><time>2025-8-26T1:18:38Z</time></trkpt>
<trkpt lat="46.20475" lon="7.43978"><ele></ele><time>2025-8-26T1:18:41Z</time></trkpt>
<trkpt lat="46.20462" lon="7.43968"><ele></ele><time>2025-8-26T1:18:44Z</time></trkpt>
<trkpt lat="46.20453" lon="7.43957"><ele></ele><time>2025-8-26T1:18:47Z</time></trkpt>
<trkpt lat="46.20448" lon="7.43955"><ele></ele><time>2025-8-26T1:18:50Z</time></trkpt>
<trkpt lat="46.20443" lon="7.43956"><ele></ele><time>2025-8-26T1:18:53Z</time></trkpt>
<trkpt lat="46.20438" lon="7.43966"><ele></ele><time>2025-8-26T1:18:56Z</time></trkpt>
<trkpt lat="46.20442" lon="7.43979"><ele></ele><time>2025-8-26T1:18:59Z</time></trkpt>
<trkpt lat="46.20448" lon="7.43985"><ele></ele><time>2025-8-26T1:19:2Z</time></trkpt>
<trkpt lat="46.20452" lon="7.43989"><ele></ele><time>2025-8-26T1:19:5Z</time></trkpt>
<trkpt lat="46.2046" lon="7.43996"><ele></ele><time>2025-8-26T1:19:8Z</time></trkpt>
<trkpt lat="46.2046" lon="7.43997"><ele></ele><time>2025-8-26T1:19:11Z</time></trkpt>
<trkpt lat="46.20468" lon="7.44007"><ele></ele><time>2025-8-26T1:19:14Z</time></trkpt>
<trkpt lat="46.20469" lon="7.44008"><ele></ele><time>2025-8-26T1:19:17Z</time></trkpt>
<trkpt lat="46.20477" lon="7.44015"><ele></ele><time>2025-8-26T1:19:20Z</time></trkpt>
<trkpt lat="46.20486" lon="7.44024"><ele></ele><time>2025-8-26T1:19:23Z</time></trkpt>
<trkpt lat="46.20486" lon="7.44025"><ele></ele><time>2025-8-26T1:19:26Z</time></trkpt>
<trkpt lat="46.20494" lon="7.44035"><ele></ele><time>2025-8-26T1:19:29Z</time></trkpt>
<trkpt lat="46.20495" lon="7.44036"><ele></ele><time>2025-8-26T1:19:32Z</time></trkpt>
<trkpt lat="46.20502" lon="7.44046"><ele></ele><time>2025-8-26T1:19:35Z</time></trkpt>
<trkpt lat="46.20503" lon="7.44047"><ele></ele><time>2025-8-26T1:19:38Z</time></trkpt>
<trkpt lat="46.2051" lon="7.44054"><ele></ele><time>2025-8-26T1:19:41Z</time></trkpt>
<trkpt lat="46.20517" lon="7.44061"><ele></ele><time>2025-8-26T1:19:44Z</time></trkpt>
<trkpt lat="46.20519" lon="7.44063"><ele></ele><time>2025-8-26T1:19:47Z</time></trkpt>
<trkpt lat="46.20524" lon="7.44068"><ele></ele><time>2025-8-26T1:19:50Z</time></trkpt>
<trkpt lat="46.20527" lon="7.44071"><ele></ele><time>2025-8-26T1:19:53Z</time></trkpt>
<trkpt lat="46.20532" lon="7.44074"><ele></ele><time>2025-8-26T1:19:56Z</time></trkpt>
<trkpt lat="46.20536" lon="7.44078"><ele></ele><time>2025-8-26T1:19:59Z</time></trkpt>
<trkpt lat="46.20541" lon="7.44083"><ele></ele><time>2025-8-26T1:20:2Z</time></trkpt>
<trkpt lat="46.20545" lon="7.44089"><ele></ele><time>2025-8-26T1:20:5Z</time></trkpt>
<trkpt lat="46.20549" lon="7.44094"><ele></ele><time>2025-8-26T1:20:8Z</time></trkpt>
<trkpt lat="46.20552" lon="7.44101"><ele></ele><time>2025-8-26T1:20:11Z</time></trkpt>
<trkpt lat="46.20554" lon="7.44105"><ele></ele><time>2025-8-26T1:20:14Z</time></trkpt>
<trkpt lat="46.20559" lon="7.44116"><ele></ele><time>2025-8-26T1:20:17Z</time></trkpt>
<trkpt lat="46.20561" lon="7.44119"><ele></ele><time>2025-8-26T1:20:20Z</time></trkpt>
<trkpt lat="46.20564" lon="7.44129"><ele></ele><time>2025-8-26T1:20:23Z</time></trkpt>
<trkpt lat="46.20566" lon="7.44132"><ele></ele><time>2025-8-26T1:20:26Z</time></trkpt>
<trkpt lat="46.20569" lon="7.44144"><ele></ele><time>2025-8-26T1:20:29Z</time></trkpt>
<trkpt lat="46.20569" lon="7.44145"><ele></ele><time>2025-8-26T1:20:32Z</time></trkpt>
<trkpt lat="46.20572" lon="7.44157"><ele></ele><time>2025-8-26T1:20:35Z</time></trkpt>
<trkpt lat="46.20573" lon="7.44159"><ele></ele><time>2025-8-26T1:20:38Z</time></trkpt>
<trkpt lat="46.20574" lon="7.44172"><ele></ele><time>2025-8-26T1:20:41Z</time></trkpt>
<trkpt lat="46.20575" lon="7.44174"><ele></ele><time>2025-8-26T1:20:44Z</time></trkpt>
<trkpt lat="46.20576" lon="7.44186"><ele></ele><time>2025-8-26T1:20:47Z</time></trkpt>
<trkpt lat="46.20577" lon="7.44188"><ele></ele><time>2025-8-26T1:20:50Z</time></trkpt>
<trkpt lat="46.20577" lon="7.442"><ele></ele><time>2025-8-26T1:20:53Z</time></trkpt>
<trkpt lat="46.20577" lon="7.44202"><ele></ele><time>2025-8-26T1:20:56Z</time></trkpt>
<trkpt lat="46.20578" lon="7.44215"><ele></ele><time>2025-8-26T1:20:59Z</time></trkpt>
<trkpt lat="46.20578" lon="7.44221"><ele></ele><time>2025-8-26T1:21:2Z</time></trkpt>
<trkpt lat="46.20579" lon="7.4423"><ele></ele><time>2025-8-26T1:21:5Z</time></trkpt>
<trkpt lat="46.20581" lon="7.44244"><ele></ele><time>2025-8-26T1:21:8Z</time></trkpt>
<trkpt lat="46.20581" lon="7.44246"><ele></ele><time>2025-8-26T1:21:11Z</time></trkpt>
<trkpt lat="46.20583" lon="7.44259"><ele></ele><time>2025-8-26T1:21:14Z</time></trkpt>
<trkpt lat="46.20583" lon="7.44261"><ele></ele><time>2025-8-26T1:21:17Z</time></trkpt>
<trkpt lat="46.20586" lon="7.44275"><ele></ele><time>2025-8-26T1:21:20Z</time></trkpt>
<trkpt lat="46.20588" lon="7.4428"><ele></ele><time>2025-8-26T1:21:23Z</time></trkpt>
<trkpt lat="46.20592" lon="7.44289"><ele></ele><time>2025-8-26T1:21:26Z</time></trkpt>
<trkpt lat="46.20594" lon="7.44295"><ele></ele><time>2025-8-26T1:21:29Z</time></trkpt>
<trkpt lat="46.20596" lon="7.44302"><ele></ele><time>2025-8-26T1:21:32Z</time></trkpt>
<trkpt lat="46.20602" lon="7.4431"><ele></ele><time>2025-8-26T1:21:35Z</time></trkpt>
<trkpt lat="46.20604" lon="7.44312"><ele></ele><time>2025-8-26T1:21:38Z</time></trkpt>
<trkpt lat="46.20608" lon="7.44321"><ele></ele><time>2025-8-26T1:21:41Z</time></trkpt>
<trkpt lat="46.2061" lon="7.44325"><ele></ele><time>2025-8-26T1:21:44Z</time></trkpt>
<trkpt lat="46.20613" lon="7.44328"><ele></ele><time>2025-8-26T1:21:47Z</time></trkpt>
<trkpt lat="46.20618" lon="7.44335"><ele></ele><time>2025-8-26T1:21:50Z</time></trkpt>
<trkpt lat="46.20624" lon="7.44341"><ele></ele><time>2025-8-26T1:21:53Z</time></trkpt>
<trkpt lat="46.20628" lon="7.44345"><ele></ele><time>2025-8-26T1:21:56Z</time></trkpt>
<trkpt lat="46.20631" lon="7.44348"><ele></ele><time>2025-8-26T1:21:59Z</time></trkpt>
<trkpt lat="46.20637" lon="7.44353"><ele></ele><time>2025-8-26T1:22:2Z</time></trkpt>
<trkpt lat="46.2064" lon="7.44355"><ele></ele><time>2025-8-26T1:22:5Z</time></trkpt>
<trkpt lat="46.20648" lon="7.4436"><ele></ele><time>2025-8-26T1:22:8Z</time></trkpt>
<trkpt lat="46.20649" lon="7.44361"><ele></ele><time>2025-8-26T1:22:11Z</time></trkpt>
<trkpt lat="46.20658" lon="7.44367"><ele></ele><time>2025-8-26T1:22:14Z</time></trkpt>
<trkpt lat="46.20667" lon="7.44373"><ele></ele><time>2025-8-26T1:22:17Z</time></trkpt>
<trkpt lat="46.20678" lon="7.44382"><ele></ele><time>2025-8-26T1:22:20Z</time></trkpt>
<trkpt lat="46.20679" lon="7.44383"><ele></ele><time>2025-8-26T1:22:23Z</time></trkpt>
<trkpt lat="46.20685" lon="7.44391"><ele></ele><time>2025-8-26T1:22:26Z</time></trkpt>
<trkpt lat="46.20687" lon="7.44395"><ele></ele><time>2025-8-26T1:22:29Z</time></trkpt>
<trkpt lat="46.20693" lon="7.44403"><ele></ele><time>2025-8-26T1:22:32Z</time></trkpt>
<trkpt lat="46.20703" lon="7.44414"><ele></ele><time>2025-8-26T1:22:35Z</time></trkpt>
<trkpt lat="46.2071" lon="7.44424"><ele></ele><time>2025-8-26T1:22:38Z</time></trkpt>
<trkpt lat="46.20711" lon="7.44426"><ele></ele><time>2025-8-26T1:22:41Z</time></trkpt>
<trkpt lat="46.20716" lon="7.44434"><ele></ele><time>2025-8-26T1:22:44Z</time></trkpt>
<trkpt lat="46.20717" lon="7.44437"><ele></ele><time>2025-8-26T1:22:47Z</time></trkpt>
<trkpt lat="46.2072" lon="7.44446"><ele></ele><time>2025-8-26T1:22:50Z</time></trkpt>
<trkpt lat="46.20722" lon="7.44451"><ele></ele><time>2025-8-26T1:22:53Z</time></trkpt>
<trkpt lat="46.20725" lon="7.44455"><ele></ele><time>2025-8-26T1:22:56Z</time></trkpt>
<trkpt lat="46.2073" lon="7.44464"><ele></ele><time>2025-8-26T1:22:59Z</time></trkpt>
<trkpt lat="46.20732" lon="7.44469"><ele></ele><time>2025-8-26T1:23:2Z</time></trkpt>
<trkpt lat="46.20734" lon="7.44478"><ele></ele><time>2025-8-26T1:23:5Z</time></trkpt>
<trkpt lat="46.20733" lon="7.44478"><ele></ele><time>2025-8-26T1:23:8Z</time></trkpt>
<trkpt lat="46.20731" lon="7.44481"><ele></ele><time>2025-8-26T1:23:11Z</time></trkpt>
<trkpt lat="46.20732" lon="7.44482"><ele></ele><time>2025-8-26T1:23:14Z</time></trkpt>
<trkpt lat="46.20738" lon="7.44479"><ele></ele><time>2025-8-26T1:23:17Z</time></trkpt>
<trkpt lat="46.20746" lon="7.44488"><ele></ele><time>2025-8-26T1:23:20Z</time></trkpt>
<trkpt lat="46.20748" lon="7.44489"><ele></ele><time>2025-8-26T1:23:23Z</time></trkpt>
<trkpt lat="46.20753" lon="7.44495"><ele></ele><time>2025-8-26T1:23:26Z</time></trkpt>
<trkpt lat="46.20754" lon="7.44499"><ele></ele><time>2025-8-26T1:23:29Z</time></trkpt>
<trkpt lat="46.2076" lon="7.44504"><ele></ele><time>2025-8-26T1:23:32Z</time></trkpt>
<trkpt lat="46.20762" lon="7.44506"><ele></ele><time>2025-8-26T1:23:35Z</time></trkpt>
<trkpt lat="46.20769" lon="7.4451"><ele></ele><time>2025-8-26T1:23:38Z</time></trkpt>
<trkpt lat="46.20772" lon="7.44512"><ele></ele><time>2025-8-26T1:23:41Z</time></trkpt>
<trkpt lat="46.20779" lon="7.44517"><ele></ele><time>2025-8-26T1:23:44Z</time></trkpt>
<trkpt lat="46.20782" lon="7.44518"><ele></ele><time>2025-8-26T1:23:47Z</time></trkpt>
<trkpt lat="46.2079" lon="7.44523"><ele></ele><time>2025-8-26T1:23:50Z</time></trkpt>
<trkpt lat="46.20791" lon="7.44524"><ele></ele><time>2025-8-26T1:23:53Z</time></trkpt>
<trkpt lat="46.20799" lon="7.44528"><ele></ele><time>2025-8-26T1:23:56Z</time></trkpt>
<trkpt lat="46.20801" lon="7.4453"><ele></ele><time>2025-8-26T1:23:59Z</time></trkpt>
<trkpt lat="46.20808" lon="7.44536"><ele></ele><time>2025-8-26T1:24:2Z</time></trkpt>
<trkpt lat="46.20811" lon="7.4454"><ele></ele><time>2025-8-26T1:24:5Z</time></trkpt>
<trkpt lat="46.2082" lon="7.44546"><ele></ele><time>2025-8-26T1:24:8Z</time></trkpt>
<trkpt lat="46.20822" lon="7.44547"><ele></ele><time>2025-8-26T1:24:11Z</time></trkpt>
<trkpt lat="46.20831" lon="7.44553"><ele></ele><time>2025-8-26T1:24:14Z</time></trkpt>
<trkpt lat="46.2084" lon="7.44559"><ele></ele><time>2025-8-26T1:24:17Z</time></trkpt>
<trkpt lat="46.2085" lon="7.44565"><ele></ele><time>2025-8-26T1:24:20Z</time></trkpt>
<trkpt lat="46.20851" lon="7.44566"><ele></ele><time>2025-8-26T1:24:23Z</time></trkpt>
<trkpt lat="46.20858" lon="7.44571"><ele></ele><time>2025-8-26T1:24:26Z</time></trkpt>
<trkpt lat="46.20859" lon="7.44572"><ele></ele><time>2025-8-26T1:24:29Z</time></trkpt>
<trkpt lat="46.20869" lon="7.44579"><ele></ele><time>2025-8-26T1:24:32Z</time></trkpt>
<trkpt lat="46.20877" lon="7.44586"><ele></ele><time>2025-8-26T1:24:35Z</time></trkpt>
<trkpt lat="46.20887" lon="7.44591"><ele></ele><time>2025-8-26T1:24:38Z</time></trkpt>
<trkpt lat="46.20888" lon="7.44592"><ele></ele><time>2025-8-26T1:24:41Z</time></trkpt>
<trkpt lat="46.20895" lon="7.44599"><ele></ele><time>2025-8-26T1:24:44Z</time></trkpt>
<trkpt lat="46.20896" lon="7.446"><ele></ele><time>2025-8-26T1:24:47Z</time></trkpt>
<trkpt lat="46.20904" lon="7.44606"><ele></ele><time>2025-8-26T1:24:50Z</time></trkpt>
<trkpt lat="46.20905" lon="7.44607"><ele></ele><time>2025-8-26T1:24:53Z</time></trkpt>
<trkpt lat="46.20913" lon="7.4461"><ele></ele><time>2025-8-26T1:24:56Z</time></trkpt>
<trkpt lat="46.20914" lon="7.4461"><ele></ele><time>2025-8-26T1:24:59Z</time></trkpt>
<trkpt lat="46.20925" lon="7.44614"><ele></ele><time>2025-8-26T1:25:2Z</time></trkpt>
<trkpt lat="46.20927" lon="7.44615"><ele></ele><time>2025-8-26T1:25:5Z</time></trkpt>
<trkpt lat="46.20939" lon="7.44612"><ele></ele><time>2025-8-26T1:25:8Z</time></trkpt>
<trkpt lat="46.20947" lon="7.44608"><ele></ele><time>2025-8-26T1:25:11Z</time></trkpt>
<trkpt lat="46.20949" lon="7.44606"><ele></ele><time>2025-8-26T1:25:14Z</time></trkpt>
<trkpt lat="46.20956" lon="7.44601"><ele></ele><time>2025-8-26T1:25:17Z</time></trkpt>
<trkpt lat="46.20964" lon="7.44595"><ele></ele><time>2025-8-26T1:25:20Z</time></trkpt>
<trkpt lat="46.20966" lon="7.44595"><ele></ele><time>2025-8-26T1:25:23Z</time></trkpt>
<trkpt lat="46.20975" lon="7.4459"><ele></ele><time>2025-8-26T1:25:26Z</time></trkpt>
<trkpt lat="46.20977" lon="7.44589"><ele></ele><time>2025-8-26T1:25:29Z</time></trkpt>
<trkpt lat="46.20984" lon="7.44586"><ele></ele><time>2025-8-26T1:25:32Z</time></trkpt>
<trkpt lat="46.20987" lon="7.44585"><ele></ele><time>2025-8-26T1:25:35Z</time></trkpt>
<trkpt lat="46.20991" lon="7.44583"><ele></ele><time>2025-8-26T1:25:38Z</time></trkpt>
<trkpt lat="46.20996" lon="7.44581"><ele></ele><time>2025-8-26T1:25:41Z</time></trkpt>
<trkpt lat="46.21001" lon="7.4458"><ele></ele><time>2025-8-26T1:25:44Z</time></trkpt>
<trkpt lat="46.21006" lon="7.44577"><ele></ele><time>2025-8-26T1:25:47Z</time></trkpt>
<trkpt lat="46.21009" lon="7.44576"><ele></ele><time>2025-8-26T1:25:50Z</time></trkpt>
<trkpt lat="46.21016" lon="7.44574"><ele></ele><time>2025-8-26T1:25:53Z</time></trkpt>
<trkpt lat="46.21017" lon="7.44573"><ele></ele><time>2025-8-26T1:25:56Z</time></trkpt>
<trkpt lat="46.21023" lon="7.44571"><ele></ele><time>2025-8-26T1:25:59Z</time></trkpt>
<trkpt lat="46.21028" lon="7.44568"><ele></ele><time>2025-8-26T1:26:2Z</time></trkpt>
<trkpt lat="46.21037" lon="7.44564"><ele></ele><time>2025-8-26T1:26:5Z</time></trkpt>
<trkpt lat="46.21041" lon="7.44562"><ele></ele><time>2025-8-26T1:26:8Z</time></trkpt>
<trkpt lat="46.21048" lon="7.44558"><ele></ele><time>2025-8-26T1:26:11Z</time></trkpt>
<trkpt lat="46.21052" lon="7.44555"><ele></ele><time>2025-8-26T1:26:14Z</time></trkpt>
<trkpt lat="46.21058" lon="7.4455"><ele></ele><time>2025-8-26T1:26:17Z</time></trkpt>
<trkpt lat="46.21062" lon="7.44548"><ele></ele><time>2025-8-26T1:26:20Z</time></trkpt>
<trkpt lat="46.21068" lon="7.44545"><ele></ele><time>2025-8-26T1:26:23Z</time></trkpt>
<trkpt lat="46.21072" lon="7.44542"><ele></ele><time>2025-8-26T1:26:26Z</time></trkpt>
<trkpt lat="46.21078" lon="7.44537"><ele></ele><time>2025-8-26T1:26:29Z</time></trkpt>
<trkpt lat="46.21082" lon="7.44534"><ele></ele><time>2025-8-26T1:26:32Z</time></trkpt>
<trkpt lat="46.21089" lon="7.44532"><ele></ele><time>2025-8-26T1:26:35Z</time></trkpt>
<trkpt lat="46.21091" lon="7.44531"><ele></ele><time>2025-8-26T1:26:38Z</time></trkpt>
<trkpt lat="46.211" lon="7.44529"><ele></ele><time>2025-8-26T1:26:41Z</time></trkpt>
<trkpt lat="46.21103" lon="7.44527"><ele></ele><time>2025-8-26T1:26:44Z</time></trkpt>
<trkpt lat="46.21111" lon="7.44525"><ele></ele><time>2025-8-26T1:26:47Z</time></trkpt>
<trkpt lat="46.21113" lon="7.44524"><ele></ele><time>2025-8-26T1:26:50Z</time></trkpt>
<trkpt lat="46.21122" lon="7.44522"><ele></ele><time>2025-8-26T1:26:53Z</time></trkpt>
<trkpt lat="46.2113" lon="7.44519"><ele></ele><time>2025-8-26T1:26:56Z</time></trkpt>
<trkpt lat="46.21132" lon="7.44519"><ele></ele><time>2025-8-26T1:26:59Z</time></trkpt>
<trkpt lat="46.21139" lon="7.44518"><ele></ele><time>2025-8-26T1:27:2Z</time></trkpt>
<trkpt lat="46.21143" lon="7.44518"><ele></ele><time>2025-8-26T1:27:5Z</time></trkpt>
<trkpt lat="46.2115" lon="7.44516"><ele></ele><time>2025-8-26T1:27:8Z</time></trkpt>
<trkpt lat="46.21156" lon="7.44515"><ele></ele><time>2025-8-26T1:27:11Z</time></trkpt>
<trkpt lat="46.2116" lon="7.44516"><ele></ele><time>2025-8-26T1:27:14Z</time></trkpt>
<trkpt lat="46.21168" lon="7.44514"><ele></ele><time>2025-8-26T1:27:17Z</time></trkpt>
<trkpt lat="46.21169" lon="7.44514"><ele></ele><time>2025-8-26T1:27:20Z</time></trkpt>
<trkpt lat="46.21181" lon="7.44515"><ele></ele><time>2025-8-26T1:27:23Z</time></trkpt>
<trkpt lat="46.21182" lon="7.44516"><ele></ele><time>2025-8-26T1:27:26Z</time></trkpt>
<trkpt lat="46.21191" lon="7.44519"><ele></ele><time>2025-8-26T1:27:29Z</time></trkpt>
<trkpt lat="46.21203" lon="7.44523"><ele></ele><time>2025-8-26T1:27:32Z</time></trkpt>
<trkpt lat="46.21212" lon="7.44531"><ele></ele><time>2025-8-26T1:27:35Z</time></trkpt>
<trkpt lat="46.21222" lon="7.44537"><ele></ele><time>2025-8-26T1:27:38Z</time></trkpt>
<trkpt lat="46.21223" lon="7.44538"><ele></ele><time>2025-8-26T1:27:41Z</time></trkpt>
<trkpt lat="46.21231" lon="7.44542"><ele></ele><time>2025-8-26T1:27:44Z</time></trkpt>
<trkpt lat="46.21234" lon="7.44544"><ele></ele><time>2025-8-26T1:27:47Z</time></trkpt>
<trkpt lat="46.21242" lon="7.44546"><ele></ele><time>2025-8-26T1:27:50Z</time></trkpt>
<trkpt lat="46.21245" lon="7.44546"><ele></ele><time>2025-8-26T1:27:53Z</time></trkpt>
<trkpt lat="46.21251" lon="7.44545"><ele></ele><time>2025-8-26T1:27:56Z</time></trkpt>
<trkpt lat="46.21256" lon="7.44545"><ele></ele><time>2025-8-26T1:27:59Z</time></trkpt>
<trkpt lat="46.21259" lon="7.44544"><ele></ele><time>2025-8-26T1:28:2Z</time></trkpt>
<trkpt lat="46.21266" lon="7.44543"><ele></ele><time>2025-8-26T1:28:5Z</time></trkpt>
<trkpt lat="46.21274" lon="7.4454"><ele></ele><time>2025-8-26T1:28:8Z</time></trkpt>
<trkpt lat="46.21276" lon="7.44539"><ele></ele><time>2025-8-26T1:28:11Z</time></trkpt>
<trkpt lat="46.21286" lon="7.44534"><ele></ele><time>2025-8-26T1:28:14Z</time></trkpt>
<trkpt lat="46.21289" lon="7.44533"><ele></ele><time>2025-8-26T1:28:17Z</time></trkpt>
<trkpt lat="46.21297" lon="7.44532"><ele></ele><time>2025-8-26T1:28:20Z</time></trkpt>
<trkpt lat="46.21302" lon="7.44532"><ele></ele><time>2025-8-26T1:28:23Z</time></trkpt>
<trkpt lat="46.21307" lon="7.44533"><ele></ele><time>2025-8-26T1:28:26Z</time></trkpt>
<trkpt lat="46.21311" lon="7.44532"><ele></ele><time>2025-8-26T1:28:29Z</time></trkpt>
<trkpt lat="46.21318" lon="7.44533"><ele></ele><time>2025-8-26T1:28:32Z</time></trkpt>
<trkpt lat="46.21323" lon="7.44532"><ele></ele><time>2025-8-26T1:28:35Z</time></trkpt>
<trkpt lat="46.21328" lon="7.44533"><ele></ele><time>2025-8-26T1:28:38Z</time></trkpt>
<trkpt lat="46.21335" lon="7.44533"><ele></ele><time>2025-8-26T1:28:41Z</time></trkpt>
<trkpt lat="46.21341" lon="7.44532"><ele></ele><time>2025-8-26T1:28:44Z</time></trkpt>
<trkpt lat="46.21343" lon="7.44532"><ele></ele><time>2025-8-26T1:28:47Z</time></trkpt>
<trkpt lat="46.21349" lon="7.44531"><ele></ele><time>2025-8-26T1:28:50Z</time></trkpt>
<trkpt lat="46.21355" lon="7.4453"><ele></ele><time>2025-8-26T1:28:53Z</time></trkpt>
<trkpt lat="46.21359" lon="7.44528"><ele></ele><time>2025-8-26T1:28:56Z</time></trkpt>
<trkpt lat="46.21368" lon="7.44521"><ele></ele><time>2025-8-26T1:28:59Z</time></trkpt>
<trkpt lat="46.21369" lon="7.4452"><ele></ele><time>2025-8-26T1:29:2Z</time></trkpt>
<trkpt lat="46.21376" lon="7.44516"><ele></ele><time>2025-8-26T1:29:5Z</time></trkpt>
<trkpt lat="46.2138" lon="7.4451"><ele></ele><time>2025-8-26T1:29:8Z</time></trkpt>
<trkpt lat="46.21385" lon="7.44502"><ele></ele><time>2025-8-26T1:29:11Z</time></trkpt>
<trkpt lat="46.21391" lon="7.44493"><ele></ele><time>2025-8-26T1:29:14Z</time></trkpt>
<trkpt lat="46.21392" lon="7.44492"><ele></ele><time>2025-8-26T1:29:17Z</time></trkpt>
<trkpt lat="46.21395" lon="7.44486"><ele></ele><time>2025-8-26T1:29:20Z</time></trkpt>
<trkpt lat="46.21398" lon="7.4448"><ele></ele><time>2025-8-26T1:29:23Z</time></trkpt>
<trkpt lat="46.214" lon="7.44474"><ele></ele><time>2025-8-26T1:29:26Z</time></trkpt>
<trkpt lat="46.21404" lon="7.44465"><ele></ele><time>2025-8-26T1:29:29Z</time></trkpt>
<trkpt lat="46.21405" lon="7.44464"><ele></ele><time>2025-8-26T1:29:32Z</time></trkpt>
<trkpt lat="46.21407" lon="7.44453"><ele></ele><time>2025-8-26T1:29:35Z</time></trkpt>
<trkpt lat="46.21408" lon="7.4445"><ele></ele><time>2025-8-26T1:29:38Z</time></trkpt>
<trkpt lat="46.2141" lon="7.44442"><ele></ele><time>2025-8-26T1:29:41Z</time></trkpt>
<trkpt lat="46.21414" lon="7.44434"><ele></ele><time>2025-8-26T1:29:44Z</time></trkpt>
<trkpt lat="46.21419" lon="7.44424"><ele></ele><time>2025-8-26T1:29:47Z</time></trkpt>
<trkpt lat="46.21421" lon="7.4442"><ele></ele><time>2025-8-26T1:29:50Z</time></trkpt>
<trkpt lat="46.21425" lon="7.44411"><ele></ele><time>2025-8-26T1:29:53Z</time></trkpt>
<trkpt lat="46.21428" lon="7.44409"><ele></ele><time>2025-8-26T1:29:56Z</time></trkpt>
<trkpt lat="46.21432" lon="7.44403"><ele></ele><time>2025-8-26T1:29:59Z</time></trkpt>
<trkpt lat="46.21439" lon="7.44399"><ele></ele><time>2025-8-26T1:30:2Z</time></trkpt>
<trkpt lat="46.2145" lon="7.44392"><ele></ele><time>2025-8-26T1:30:5Z</time></trkpt>
<trkpt lat="46.2146" lon="7.44388"><ele></ele><time>2025-8-26T1:30:8Z</time></trkpt>
<trkpt lat="46.2147" lon="7.44384"><ele></ele><time>2025-8-26T1:30:11Z</time></trkpt>
<trkpt lat="46.21471" lon="7.44384"><ele></ele><time>2025-8-26T1:30:14Z</time></trkpt>
<trkpt lat="46.21481" lon="7.44379"><ele></ele><time>2025-8-26T1:30:17Z</time></trkpt>
<trkpt lat="46.21482" lon="7.44379"><ele></ele><time>2025-8-26T1:30:20Z</time></trkpt>
<trkpt lat="46.21491" lon="7.44374"><ele></ele><time>2025-8-26T1:30:23Z</time></trkpt>
<trkpt lat="46.21492" lon="7.44372"><ele></ele><time>2025-8-26T1:30:26Z</time></trkpt>
<trkpt lat="46.21498" lon="7.44365"><ele></ele><time>2025-8-26T1:30:29Z</time></trkpt>
<trkpt lat="46.21502" lon="7.44357"><ele></ele><time>2025-8-26T1:30:32Z</time></trkpt>
<trkpt lat="46.21504" lon="7.44354"><ele></ele><time>2025-8-26T1:30:35Z</time></trkpt>
<trkpt lat="46.21508" lon="7.44344"><ele></ele><time>2025-8-26T1:30:38Z</time></trkpt>
<trkpt lat="46.2151" lon="7.44339"><ele></ele><time>2025-8-26T1:30:41Z</time></trkpt>
<trkpt lat="46.21514" lon="7.44333"><ele></ele><time>2025-8-26T1:30:44Z</time></trkpt>
<trkpt lat="46.21517" lon="7.44328"><ele></ele><time>2025-8-26T1:30:47Z</time></trkpt>
<trkpt lat="46.2152" lon="7.4432"><ele></ele><time>2025-8-26T1:30:50Z</time></trkpt>
<trkpt lat="46.21524" lon="7.44316"><ele></ele><time>2025-8-26T1:30:53Z</time></trkpt>
<trkpt lat="46.21527" lon="7.44309"><ele></ele><time>2025-8-26T1:30:56Z</time></trkpt>
<trkpt lat="46.21533" lon="7.44302"><ele></ele><time>2025-8-26T1:30:59Z</time></trkpt>
<trkpt lat="46.21537" lon="7.44299"><ele></ele><time>2025-8-26T1:31:2Z</time></trkpt>
<trkpt lat="46.21543" lon="7.44294"><ele></ele><time>2025-8-26T1:31:5Z</time></trkpt>
<trkpt lat="46.2155" lon="7.44289"><ele></ele><time>2025-8-26T1:31:8Z</time></trkpt>
<trkpt lat="46.21555" lon="7.44286"><ele></ele><time>2025-8-26T1:31:11Z</time></trkpt>
<trkpt lat="46.21558" lon="7.44284"><ele></ele><time>2025-8-26T1:31:14Z</time></trkpt>
<trkpt lat="46.21566" lon="7.44281"><ele></ele><time>2025-8-26T1:31:17Z</time></trkpt>
<trkpt lat="46.2157" lon="7.4428"><ele></ele><time>2025-8-26T1:31:20Z</time></trkpt>
<trkpt lat="46.21579" lon="7.44279"><ele></ele><time>2025-8-26T1:31:23Z</time></trkpt>
<trkpt lat="46.21582" lon="7.44279"><ele></ele><time>2025-8-26T1:31:26Z</time></trkpt>
<trkpt lat="46.21587" lon="7.44281"><ele></ele><time>2025-8-26T1:31:29Z</time></trkpt>
<trkpt lat="46.2159" lon="7.44284"><ele></ele><time>2025-8-26T1:31:32Z</time></trkpt>
<trkpt lat="46.21594" lon="7.44294"><ele></ele><time>2025-8-26T1:31:35Z</time></trkpt>
<trkpt lat="46.21594" lon="7.44295"><ele></ele><time>2025-8-26T1:31:38Z</time></trkpt>
<trkpt lat="46.21593" lon="7.44299"><ele></ele><time>2025-8-26T1:31:41Z</time></trkpt>
<trkpt lat="46.2159" lon="7.44301"><ele></ele><time>2025-8-26T1:31:44Z</time></trkpt>
<trkpt lat="46.21578" lon="7.44301"><ele></ele><time>2025-8-26T1:31:47Z</time></trkpt>
<trkpt lat="46.21575" lon="7.44302"><ele></ele><time>2025-8-26T1:31:50Z</time></trkpt>
<trkpt lat="46.21562" lon="7.44305"><ele></ele><time>2025-8-26T1:31:53Z</time></trkpt>
<trkpt lat="46.2156" lon="7.44306"><ele></ele><time>2025-8-26T1:31:56Z</time></trkpt>
<trkpt lat="46.21551" lon="7.44311"><ele></ele><time>2025-8-26T1:31:59Z</time></trkpt>
<trkpt lat="46.21547" lon="7.44315"><ele></ele><time>2025-8-26T1:32:2Z</time></trkpt>
<trkpt lat="46.21541" lon="7.44329"><ele></ele><time>2025-8-26T1:32:5Z</time></trkpt>
<trkpt lat="46.2154" lon="7.44331"><ele></ele><time>2025-8-26T1:32:8Z</time></trkpt>
<trkpt lat="46.21536" lon="7.44348"><ele></ele><time>2025-8-26T1:32:11Z</time></trkpt>
<trkpt lat="46.21535" lon="7.44355"><ele></ele><time>2025-8-26T1:32:14Z</time></trkpt>
<trkpt lat="46.21532" lon="7.44371"><ele></ele><time>2025-8-26T1:32:17Z</time></trkpt>
<trkpt lat="46.21532" lon="7.44373"><ele></ele><time>2025-8-26T1:32:20Z</time></trkpt>
<trkpt lat="46.2153" lon="7.44387"><ele></ele><time>2025-8-26T1:32:23Z</time></trkpt>
<trkpt lat="46.2153" lon="7.44391"><ele></ele><time>2025-8-26T1:32:26Z</time></trkpt>
<trkpt lat="46.21528" lon="7.44406"><ele></ele><time>2025-8-26T1:32:29Z</time></trkpt>
<trkpt lat="46.21528" lon="7.44408"><ele></ele><time>2025-8-26T1:32:32Z</time></trkpt>
<trkpt lat="46.21526" lon="7.4442"><ele></ele><time>2025-8-26T1:32:35Z</time></trkpt>
<trkpt lat="46.21526" lon="7.44424"><ele></ele><time>2025-8-26T1:32:38Z</time></trkpt>
<trkpt lat="46.21524" lon="7.44437"><ele></ele><time>2025-8-26T1:32:41Z</time></trkpt>
<trkpt lat="46.21522" lon="7.44443"><ele></ele><time>2025-8-26T1:32:44Z</time></trkpt>
<trkpt lat="46.21521" lon="7.44451"><ele></ele><time>2025-8-26T1:32:47Z</time></trkpt>
<trkpt lat="46.2152" lon="7.44458"><ele></ele><time>2025-8-26T1:32:50Z</time></trkpt>
<trkpt lat="46.21518" lon="7.4447"><ele></ele><time>2025-8-26T1:32:53Z</time></trkpt>
<trkpt lat="46.21517" lon="7.44472"><ele></ele><time>2025-8-26T1:32:56Z</time></trkpt>
<trkpt lat="46.21514" lon="7.44485"><ele></ele><time>2025-8-26T1:32:59Z</time></trkpt>
<trkpt lat="46.21514" lon="7.44487"><ele></ele><time>2025-8-26T1:33:2Z</time></trkpt>
<trkpt lat="46.21512" lon="7.44499"><ele></ele><time>2025-8-26T1:33:5Z</time></trkpt>
<trkpt lat="46.21512" lon="7.445"><ele></ele><time>2025-8-26T1:33:8Z</time></trkpt>
<trkpt lat="46.21507" lon="7.44511"><ele></ele><time>2025-8-26T1:33:11Z</time></trkpt>
<trkpt lat="46.21505" lon="7.44522"><ele></ele><time>2025-8-26T1:33:14Z</time></trkpt>
<trkpt lat="46.21503" lon="7.44529"><ele></ele><time>2025-8-26T1:33:17Z</time></trkpt>
<trkpt lat="46.21501" lon="7.44536"><ele></ele><time>2025-8-26T1:33:20Z</time></trkpt>
<trkpt lat="46.21498" lon="7.44546"><ele></ele><time>2025-8-26T1:33:23Z</time></trkpt>
<trkpt lat="46.21496" lon="7.44552"><ele></ele><time>2025-8-26T1:33:26Z</time></trkpt>
<trkpt lat="46.21493" lon="7.44561"><ele></ele><time>2025-8-26T1:33:29Z</time></trkpt>
<trkpt lat="46.21491" lon="7.44566"><ele></ele><time>2025-8-26T1:33:32Z</time></trkpt>
<trkpt lat="46.21489" lon="7.44575"><ele></ele><time>2025-8-26T1:33:35Z</time></trkpt>
<trkpt lat="46.21487" lon="7.44578"><ele></ele><time>2025-8-26T1:33:38Z</time></trkpt>
<trkpt lat="46.21485" lon="7.44592"><ele></ele><time>2025-8-26T1:33:41Z</time></trkpt>
<trkpt lat="46.21484" lon="7.44595"><ele></ele><time>2025-8-26T1:33:44Z</time></trkpt>
<trkpt lat="46.21481" lon="7.44606"><ele></ele><time>2025-8-26T1:33:47Z</time></trkpt>
<trkpt lat="46.21481" lon="7.44608"><ele></ele><time>2025-8-26T1:33:50Z</time></trkpt>
<trkpt lat="46.21479" lon="7.4462"><ele></ele><time>2025-8-26T1:33:53Z</time></trkpt>
<trkpt lat="46.21477" lon="7.44626"><ele></ele><time>2025-8-26T1:33:56Z</time></trkpt>
<trkpt lat="46.21474" lon="7.44636"><ele></ele><time>2025-8-26T1:33:59Z</time></trkpt>
<trkpt lat="46.21471" lon="7.4464"><ele></ele><time>2025-8-26T1:34:2Z</time></trkpt>
<trkpt lat="46.21469" lon="7.44647"><ele></ele><time>2025-8-26T1:34:5Z</time></trkpt>
<trkpt lat="46.21467" lon="7.44655"><ele></ele><time>2025-8-26T1:34:8Z</time></trkpt>
<trkpt lat="46.21465" lon="7.44661"><ele></ele><time>2025-8-26T1:34:11Z</time></trkpt>
<trkpt lat="46.21461" lon="7.44666"><ele></ele><time>2025-8-26T1:34:14Z</time></trkpt>
<trkpt lat="46.21457" lon="7.44675"><ele></ele><time>2025-8-26T1:34:17Z</time></trkpt>
<trkpt lat="46.21453" lon="7.4468"><ele></ele><time>2025-8-26T1:34:20Z</time></trkpt>
<trkpt lat="46.21446" lon="7.44687"><ele></ele><time>2025-8-26T1:34:23Z</time></trkpt>
<trkpt lat="46.21443" lon="7.44691"><ele></ele><time>2025-8-26T1:34:26Z</time></trkpt>
<trkpt lat="46.21438" lon="7.44698"><ele></ele><time>2025-8-26T1:34:29Z</time></trkpt>
<trkpt lat="46.21435" lon="7.447"><ele></ele><time>2025-8-26T1:34:32Z</time></trkpt>
<trkpt lat="46.2143" lon="7.44707"><ele></ele><time>2025-8-26T1:34:35Z</time></trkpt>
<trkpt lat="46.21426" lon="7.44711"><ele></ele><time>2025-8-26T1:34:38Z</time></trkpt>
<trkpt lat="46.21422" lon="7.44717"><ele></ele><time>2025-8-26T1:34:41Z</time></trkpt>
<trkpt lat="46.21415" lon="7.44725"><ele></ele><time>2025-8-26T1:34:44Z</time></trkpt>
<trkpt lat="46.21411" lon="7.4473"><ele></ele><time>2025-8-26T1:34:47Z</time></trkpt>
<trkpt lat="46.21404" lon="7.44739"><ele></ele><time>2025-8-26T1:34:50Z</time></trkpt>
<trkpt lat="46.21403" lon="7.44741"><ele></ele><time>2025-8-26T1:34:53Z</time></trkpt>
<trkpt lat="46.21394" lon="7.44754"><ele></ele><time>2025-8-26T1:34:56Z</time></trkpt>
<trkpt lat="46.21393" lon="7.44755"><ele></ele><time>2025-8-26T1:34:59Z</time></trkpt>
<trkpt lat="46.21384" lon="7.44767"><ele></ele><time>2025-8-26T1:35:2Z</time></trkpt>
<trkpt lat="46.21376" lon="7.44774"><ele></ele><time>2025-8-26T1:35:5Z</time></trkpt>
<trkpt lat="46.21374" lon="7.44778"><ele></ele><time>2025-8-26T1:35:8Z</time></trkpt>
<trkpt lat="46.21371" lon="7.44781"><ele></ele><time>2025-8-26T1:35:11Z</time></trkpt>
<trkpt lat="46.21364" lon="7.44787"><ele></ele><time>2025-8-26T1:35:14Z</time></trkpt>
<trkpt lat="46.21362" lon="7.44788"><ele></ele><time>2025-8-26T1:35:17Z</time></trkpt>
<trkpt lat="46.21354" lon="7.44796"><ele></ele><time>2025-8-26T1:35:20Z</time></trkpt>
<trkpt lat="46.21353" lon="7.44797"><ele></ele><time>2025-8-26T1:35:23Z</time></trkpt>
<trkpt lat="46.21345" lon="7.44802"><ele></ele><time>2025-8-26T1:35:26Z</time></trkpt>
<trkpt lat="46.21344" lon="7.44803"><ele></ele><time>2025-8-26T1:35:29Z</time></trkpt>
<trkpt lat="46.21334" lon="7.44811"><ele></ele><time>2025-8-26T1:35:32Z</time></trkpt>
<trkpt lat="46.21333" lon="7.44813"><ele></ele><time>2025-8-26T1:35:35Z</time></trkpt>
<trkpt lat="46.21325" lon="7.44819"><ele></ele><time>2025-8-26T1:35:38Z</time></trkpt>
<trkpt lat="46.21323" lon="7.44822"><ele></ele><time>2025-8-26T1:35:41Z</time></trkpt>
<trkpt lat="46.2132" lon="7.44835"><ele></ele><time>2025-8-26T1:35:44Z</time></trkpt>
<trkpt lat="46.21319" lon="7.44842"><ele></ele><time>2025-8-26T1:35:47Z</time></trkpt>
<trkpt lat="46.21317" lon="7.44851"><ele></ele><time>2025-8-26T1:35:50Z</time></trkpt>
<trkpt lat="46.21313" lon="7.44866"><ele></ele><time>2025-8-26T1:35:53Z</time></trkpt>
<trkpt lat="46.21312" lon="7.44868"><ele></ele><time>2025-8-26T1:35:56Z</time></trkpt>
<trkpt lat="46.21305" lon="7.44878"><ele></ele><time>2025-8-26T1:35:59Z</time></trkpt>
<trkpt lat="46.21304" lon="7.44879"><ele></ele><time>2025-8-26T1:36:2Z</time></trkpt>
<trkpt lat="46.21296" lon="7.4489"><ele></ele><time>2025-8-26T1:36:5Z</time></trkpt>
<trkpt lat="46.21294" lon="7.44891"><ele></ele><time>2025-8-26T1:36:8Z</time></trkpt>
<trkpt lat="46.21283" lon="7.44902"><ele></ele><time>2025-8-26T1:36:11Z</time></trkpt>
<trkpt lat="46.21282" lon="7.44903"><ele></ele><time>2025-8-26T1:36:14Z</time></trkpt>
<trkpt lat="46.21272" lon="7.44914"><ele></ele><time>2025-8-26T1:36:17Z</time></trkpt>
<trkpt lat="46.21264" lon="7.44924"><ele></ele><time>2025-8-26T1:36:20Z</time></trkpt>
<trkpt lat="46.21263" lon="7.44926"><ele></ele><time>2025-8-26T1:36:23Z</time></trkpt>
<trkpt lat="46.21255" lon="7.44936"><ele></ele><time>2025-8-26T1:36:26Z</time></trkpt>
<trkpt lat="46.21255" lon="7.44938"><ele></ele><time>2025-8-26T1:36:29Z</time></trkpt>
<trkpt lat="46.21251" lon="7.44945"><ele></ele><time>2025-8-26T1:36:32Z</time></trkpt>
<trkpt lat="46.21247" lon="7.44952"><ele></ele><time>2025-8-26T1:36:35Z</time></trkpt>
<trkpt lat="46.21244" lon="7.44956"><ele></ele><time>2025-8-26T1:36:38Z</time></trkpt>
<trkpt lat="46.21235" lon="7.44964"><ele></ele><time>2025-8-26T1:36:41Z</time></trkpt>
<trkpt lat="46.21234" lon="7.44964"><ele></ele><time>2025-8-26T1:36:44Z</time></trkpt>
<trkpt lat="46.21225" lon="7.44971"><ele></ele><time>2025-8-26T1:36:47Z</time></trkpt>
<trkpt lat="46.21224" lon="7.44973"><ele></ele><time>2025-8-26T1:36:50Z</time></trkpt>
<trkpt lat="46.21216" lon="7.44978"><ele></ele><time>2025-8-26T1:36:53Z</time></trkpt>
<trkpt lat="46.21214" lon="7.44978"><ele></ele><time>2025-8-26T1:36:56Z</time></trkpt>
<trkpt lat="46.2121" lon="7.44981"><ele></ele><time>2025-8-26T1:36:59Z</time></trkpt>
<trkpt lat="46.21206" lon="7.44983"><ele></ele><time>2025-8-26T1:37:2Z</time></trkpt>
<trkpt lat="46.21197" lon="7.44989"><ele></ele><time>2025-8-26T1:37:5Z</time></trkpt>
<trkpt lat="46.21193" lon="7.44991"><ele></ele><time>2025-8-26T1:37:8Z</time></trkpt>
<trkpt lat="46.21184" lon="7.44996"><ele></ele><time>2025-8-26T1:37:11Z</time></trkpt>
<trkpt lat="46.2118" lon="7.44999"><ele></ele><time>2025-8-26T1:37:14Z</time></trkpt>
<trkpt lat="46.2117" lon="7.45004"><ele></ele><time>2025-8-26T1:37:17Z</time></trkpt>
<trkpt lat="46.21164" lon="7.45007"><ele></ele><time>2025-8-26T1:37:20Z</time></trkpt>
<trkpt lat="46.21158" lon="7.45012"><ele></ele><time>2025-8-26T1:37:23Z</time></trkpt>
<trkpt lat="46.21151" lon="7.45019"><ele></ele><time>2025-8-26T1:37:26Z</time></trkpt>
<trkpt lat="46.21147" lon="7.45022"><ele></ele><time>2025-8-26T1:37:29Z</time></trkpt>
<trkpt lat="46.21139" lon="7.45028"><ele></ele><time>2025-8-26T1:37:32Z</time></trkpt>
<trkpt lat="46.21137" lon="7.4503"><ele></ele><time>2025-8-26T1:37:35Z</time></trkpt>
<trkpt lat="46.21127" lon="7.45039"><ele></ele><time>2025-8-26T1:37:38Z</time></trkpt>
<trkpt lat="46.21113" lon="7.45051"><ele></ele><time>2025-8-26T1:37:41Z</time></trkpt>
<trkpt lat="46.21103" lon="7.45058"><ele></ele><time>2025-8-26T1:37:44Z</time></trkpt>
<trkpt lat="46.21101" lon="7.45059"><ele></ele><time>2025-8-26T1:37:47Z</time></trkpt>
<trkpt lat="46.21093" lon="7.45064"><ele></ele><time>2025-8-26T1:37:50Z</time></trkpt>
<trkpt lat="46.21092" lon="7.45064"><ele></ele><time>2025-8-26T1:37:53Z</time></trkpt>
<trkpt lat="46.21083" lon="7.45068"><ele></ele><time>2025-8-26T1:37:56Z</time></trkpt>
<trkpt lat="46.21077" lon="7.45073"><ele></ele><time>2025-8-26T1:37:59Z</time></trkpt>
<trkpt lat="46.21073" lon="7.45075"><ele></ele><time>2025-8-26T1:38:2Z</time></trkpt>
<trkpt lat="46.21063" lon="7.45084"><ele></ele><time>2025-8-26T1:38:5Z</time></trkpt>
<trkpt lat="46.21057" lon="7.45092"><ele></ele><time>2025-8-26T1:38:8Z</time></trkpt>
<trkpt lat="46.21054" lon="7.45095"><ele></ele><time>2025-8-26T1:38:11Z</time></trkpt>
<trkpt lat="46.21049" lon="7.45099"><ele></ele><time>2025-8-26T1:38:14Z</time></trkpt>
<trkpt lat="46.21044" lon="7.45103"><ele></ele><time>2025-8-26T1:38:17Z</time></trkpt>
<trkpt lat="46.21038" lon="7.45107"><ele></ele><time>2025-8-26T1:38:20Z</time></trkpt>
<trkpt lat="46.21033" lon="7.4511"><ele></ele><time>2025-8-26T1:38:23Z</time></trkpt>
<trkpt lat="46.21029" lon="7.45112"><ele></ele><time>2025-8-26T1:38:26Z</time></trkpt>
<trkpt lat="46.21022" lon="7.45115"><ele></ele><time>2025-8-26T1:38:29Z</time></trkpt>
<trkpt lat="46.21017" lon="7.45119"><ele></ele><time>2025-8-26T1:38:32Z</time></trkpt>
<trkpt lat="46.21015" lon="7.4512"><ele></ele><time>2025-8-26T1:38:35Z</time></trkpt>
<trkpt lat="46.21008" lon="7.45122"><ele></ele><time>2025-8-26T1:38:38Z</time></trkpt>
<trkpt lat="46.21007" lon="7.45123"><ele></ele><time>2025-8-26T1:38:41Z</time></trkpt>
<trkpt lat="46.21" lon="7.45126"><ele></ele><time>2025-8-26T1:38:44Z</time></trkpt>
<trkpt lat="46.20994" lon="7.45128"><ele></ele><time>2025-8-26T1:38:47Z</time></trkpt>
<trkpt lat="46.20988" lon="7.45129"><ele></ele><time>2025-8-26T1:38:50Z</time></trkpt>
<trkpt lat="46.20979" lon="7.45133"><ele></ele><time>2025-8-26T1:38:53Z</time></trkpt>
<trkpt lat="46.20975" lon="7.45134"><ele></ele><time>2025-8-26T1:38:56Z</time></trkpt>
<trkpt lat="46.20968" lon="7.45135"><ele></ele><time>2025-8-26T1:38:59Z</time></trkpt>
<trkpt lat="46.20967" lon="7.45135"><ele></ele><time>2025-8-26T1:39:2Z</time></trkpt>
<trkpt lat="46.20961" lon="7.45137"><ele></ele><time>2025-8-26T1:39:5Z</time></trkpt>
<trkpt lat="46.20951" lon="7.45139"><ele></ele><time>2025-8-26T1:39:8Z</time></trkpt>
<trkpt lat="46.20949" lon="7.4514"><ele></ele><time>2025-8-26T1:39:11Z</time></trkpt>
<trkpt lat="46.2094" lon="7.45141"><ele></ele><time>2025-8-26T1:39:14Z</time></trkpt>
<trkpt lat="46.20936" lon="7.45141"><ele></ele><time>2025-8-26T1:39:17Z</time></trkpt>
<trkpt lat="46.20933" lon="7.45141"><ele></ele><time>2025-8-26T1:39:20Z</time></trkpt>
<trkpt lat="46.20928" lon="7.45141"><ele></ele><time>2025-8-26T1:39:23Z</time></trkpt>
<trkpt lat="46.20926" lon="7.45142"><ele></ele><time>2025-8-26T1:39:26Z</time></trkpt>
<trkpt lat="46.20921" lon="7.45143"><ele></ele><time>2025-8-26T1:39:29Z</time></trkpt>
<trkpt lat="46.20917" lon="7.45144"><ele></ele><time>2025-8-26T1:39:32Z</time></trkpt>
<trkpt lat="46.20912" lon="7.45144"><ele></ele><time>2025-8-26T1:39:35Z</time></trkpt>
<trkpt lat="46.20905" lon="7.45144"><ele></ele><time>2025-8-26T1:39:38Z</time></trkpt>
<trkpt lat="46.20902" lon="7.45144"><ele></ele><time>2025-8-26T1:39:41Z</time></trkpt>
<trkpt lat="46.20894" lon="7.45144"><ele></ele><time>2025-8-26T1:39:44Z</time></trkpt>
<trkpt lat="46.20891" lon="7.45144"><ele></ele><time>2025-8-26T1:39:47Z</time></trkpt>
<trkpt lat="46.20886" lon="7.45146"><ele></ele><time>2025-8-26T1:39:50Z</time></trkpt>
<trkpt lat="46.20881" lon="7.45147"><ele></ele><time>2025-8-26T1:39:53Z</time></trkpt>
<trkpt lat="46.20874" lon="7.45147"><ele></ele><time>2025-8-26T1:39:56Z</time></trkpt>
<trkpt lat="46.2087" lon="7.45147"><ele></ele><time>2025-8-26T1:39:59Z</time></trkpt>
<trkpt lat="46.20868" lon="7.45146"><ele></ele><time>2025-8-26T1:40:2Z</time></trkpt>
<trkpt lat="46.20864" lon="7.45147"><ele></ele><time>2025-8-26T1:40:5Z</time></trkpt>
<trkpt lat="46.20851" lon="7.45147"><ele></ele><time>2025-8-26T1:40:8Z</time></trkpt>
<trkpt lat="46.20849" lon="7.45148"><ele></ele><time>2025-8-26T1:40:11Z</time></trkpt>
<trkpt lat="46.20835" lon="7.45151"><ele></ele><time>2025-8-26T1:40:14Z</time></trkpt>
<trkpt lat="46.2083" lon="7.45151"><ele></ele><time>2025-8-26T1:40:17Z</time></trkpt>
<trkpt lat="46.20821" lon="7.4515"><ele></ele><time>2025-8-26T1:40:20Z</time></trkpt>
<trkpt lat="46.20813" lon="7.45147"><ele></ele><time>2025-8-26T1:40:23Z</time></trkpt>
<trkpt lat="46.2081" lon="7.45146"><ele></ele><time>2025-8-26T1:40:26Z</time></trkpt>
<trkpt lat="46.20801" lon="7.45143"><ele></ele><time>2025-8-26T1:40:29Z</time></trkpt>
<trkpt lat="46.20797" lon="7.45143"><ele></ele><time>2025-8-26T1:40:32Z</time></trkpt>
<trkpt lat="46.2079" lon="7.45141"><ele></ele><time>2025-8-26T1:40:35Z</time></trkpt>
<trkpt lat="46.20781" lon="7.45141"><ele></ele><time>2025-8-26T1:40:38Z</time></trkpt>
<trkpt lat="46.20776" lon="7.45141"><ele></ele><time>2025-8-26T1:40:41Z</time></trkpt>
<trkpt lat="46.20764" lon="7.45142"><ele></ele><time>2025-8-26T1:40:44Z</time></trkpt>
<trkpt lat="46.20753" lon="7.45144"><ele></ele><time>2025-8-26T1:40:47Z</time></trkpt>
<trkpt lat="46.20738" lon="7.45145"><ele></ele><time>2025-8-26T1:40:50Z</time></trkpt>
<trkpt lat="46.20736" lon="7.45145"><ele></ele><time>2025-8-26T1:40:53Z</time></trkpt>
<trkpt lat="46.20729" lon="7.45145"><ele></ele><time>2025-8-26T1:40:56Z</time></trkpt>
<trkpt lat="46.20728" lon="7.45145"><ele></ele><time>2025-8-26T1:40:59Z</time></trkpt>
<trkpt lat="46.20722" lon="7.45147"><ele></ele><time>2025-8-26T1:41:2Z</time></trkpt>
<trkpt lat="46.20718" lon="7.45147"><ele></ele><time>2025-8-26T1:41:5Z</time></trkpt>
<trkpt lat="46.20713" lon="7.45148"><ele></ele><time>2025-8-26T1:41:8Z</time></trkpt>
<trkpt lat="46.20703" lon="7.45149"><ele></ele><time>2025-8-26T1:41:11Z</time></trkpt>
<trkpt lat="46.20696" lon="7.45149"><ele></ele><time>2025-8-26T1:41:14Z</time></trkpt>
<trkpt lat="46.20692" lon="7.4515"><ele></ele><time>2025-8-26T1:41:17Z</time></trkpt>
<trkpt lat="46.20686" lon="7.45152"><ele></ele><time>2025-8-26T1:41:20Z</time></trkpt>
<trkpt lat="46.20678" lon="7.45155"><ele></ele><time>2025-8-26T1:41:23Z</time></trkpt>
<trkpt lat="46.20672" lon="7.45157"><ele></ele><time>2025-8-26T1:41:26Z</time></trkpt>
<trkpt lat="46.20667" lon="7.45161"><ele></ele><time>2025-8-26T1:41:29Z</time></trkpt>
<trkpt lat="46.20666" lon="7.45162"><ele></ele><time>2025-8-26T1:41:32Z</time></trkpt>
<trkpt lat="46.20658" lon="7.45167"><ele></ele><time>2025-8-26T1:41:35Z</time></trkpt>
<trkpt lat="46.20657" lon="7.45168"><ele></ele><time>2025-8-26T1:41:38Z</time></trkpt>
<trkpt lat="46.20654" lon="7.4517"><ele></ele><time>2025-8-26T1:41:41Z</time></trkpt>
<trkpt lat="46.20647" lon="7.45173"><ele></ele><time>2025-8-26T1:41:44Z</time></trkpt>
<trkpt lat="46.20641" lon="7.45177"><ele></ele><time>2025-8-26T1:41:47Z</time></trkpt>
<trkpt lat="46.20638" lon="7.45179"><ele></ele><time>2025-8-26T1:41:50Z</time></trkpt>
<trkpt lat="46.2063" lon="7.45182"><ele></ele><time>2025-8-26T1:41:53Z</time></trkpt>
<trkpt lat="46.20628" lon="7.45183"><ele></ele><time>2025-8-26T1:41:56Z</time></trkpt>
<trkpt lat="46.20616" lon="7.45188"><ele></ele><time>2025-8-26T1:41:59Z</time></trkpt>
<trkpt lat="46.20612" lon="7.45189"><ele></ele><time>2025-8-26T1:42:2Z</time></trkpt>
<trkpt lat="46.20604" lon="7.45192"><ele></ele><time>2025-8-26T1:42:5Z</time></trkpt>
<trkpt lat="46.20598" lon="7.45193"><ele></ele><time>2025-8-26T1:42:8Z</time></trkpt>
<trkpt lat="46.20591" lon="7.45193"><ele></ele><time>2025-8-26T1:42:11Z</time></trkpt>
<trkpt lat="46.20589" lon="7.45193"><ele></ele><time>2025-8-26T1:42:14Z</time></trkpt>
<trkpt lat="46.20586" lon="7.45194"><ele></ele><time>2025-8-26T1:42:17Z</time></trkpt>
<trkpt lat="46.20584" lon="7.45193"><ele></ele><time>2025-8-26T1:42:20Z</time></trkpt>
<trkpt lat="46.20575" lon="7.45191"><ele></ele><time>2025-8-26T1:42:23Z</time></trkpt>
<trkpt lat="46.20572" lon="7.45189"><ele></ele><time>2025-8-26T1:42:26Z</time></trkpt>
<trkpt lat="46.20562" lon="7.45186"><ele></ele><time>2025-8-26T1:42:29Z</time></trkpt>
<trkpt lat="46.20559" lon="7.45185"><ele></ele><time>2025-8-26T1:42:32Z</time></trkpt>
<trkpt lat="46.20552" lon="7.45184"><ele></ele><time>2025-8-26T1:42:35Z</time></trkpt>
<trkpt lat="46.20546" lon="7.45184"><ele></ele><time>2025-8-26T1:42:38Z</time></trkpt>
<trkpt lat="46.2054" lon="7.45185"><ele></ele><time>2025-8-26T1:42:41Z</time></trkpt>
<trkpt lat="46.20529" lon="7.45186"><ele></ele><time>2025-8-26T1:42:44Z</time></trkpt>
<trkpt lat="46.2052" lon="7.45186"><ele></ele><time>2025-8-26T1:42:47Z</time></trkpt>
<trkpt lat="46.20517" lon="7.45185"><ele></ele><time>2025-8-26T1:42:50Z</time></trkpt>
<trkpt lat="46.20507" lon="7.45182"><ele></ele><time>2025-8-26T1:42:53Z</time></trkpt>
<trkpt lat="46.20497" lon="7.45179"><ele></ele><time>2025-8-26T1:42:56Z</time></trkpt>
<trkpt lat="46.20492" lon="7.45178"><ele></ele><time>2025-8-26T1:42:59Z</time></trkpt>
<trkpt lat="46.20486" lon="7.45176"><ele></ele><time>2025-8-26T1:43:2Z</time></trkpt>
<trkpt lat="46.20478" lon="7.45175"><ele></ele><time>2025-8-26T1:43:5Z</time></trkpt>
<trkpt lat="46.20475" lon="7.45175"><ele></ele><time>2025-8-26T1:43:8Z</time></trkpt>
<trkpt lat="46.20466" lon="7.45177"><ele></ele><time>2025-8-26T1:43:11Z</time></trkpt>
<trkpt lat="46.20464" lon="7.45177"><ele></ele><time>2025-8-26T1:43:14Z</time></trkpt>
<trkpt lat="46.20456" lon="7.45178"><ele></ele><time>2025-8-26T1:43:17Z</time></trkpt>
<trkpt lat="46.20455" lon="7.45179"><ele></ele><time>2025-8-26T1:43:20Z</time></trkpt>
<trkpt lat="46.20445" lon="7.45181"><ele></ele><time>2025-8-26T1:43:23Z</time></trkpt>
<trkpt lat="46.20444" lon="7.45181"><ele></ele><time>2025-8-26T1:43:26Z</time></trkpt>
<trkpt lat="46.20436" lon="7.45183"><ele></ele><time>2025-8-26T1:43:29Z</time></trkpt>
<trkpt lat="46.20433" lon="7.45183"><ele></ele><time>2025-8-26T1:43:32Z</time></trkpt>
<trkpt lat="46.20418" lon="7.45188"><ele></ele><time>2025-8-26T1:43:35Z</time></trkpt>
<trkpt lat="46.20403" lon="7.45191"><ele></ele><time>2025-8-26T1:43:38Z</time></trkpt>
<trkpt lat="46.20395" lon="7.45193"><ele></ele><time>2025-8-26T1:43:41Z</time></trkpt>
<trkpt lat="46.20387" lon="7.45196"><ele></ele><time>2025-8-26T1:43:44Z</time></trkpt>
<trkpt lat="46.20383" lon="7.45196"><ele></ele><time>2025-8-26T1:43:47Z</time></trkpt>
<trkpt lat="46.20381" lon="7.45196"><ele></ele><time>2025-8-26T1:43:50Z</time></trkpt>
<trkpt lat="46.20377" lon="7.45196"><ele></ele><time>2025-8-26T1:43:53Z</time></trkpt>
<trkpt lat="46.20374" lon="7.45196"><ele></ele><time>2025-8-26T1:43:56Z</time></trkpt>
<trkpt lat="46.20372" lon="7.45196"><ele></ele><time>2025-8-26T1:43:59Z</time></trkpt>
<trkpt lat="46.20364" lon="7.45198"><ele></ele><time>2025-8-26T1:44:2Z</time></trkpt>
<trkpt lat="46.20352" lon="7.45202"><ele></ele><time>2025-8-26T1:44:5Z</time></trkpt>
<trkpt lat="46.2034" lon="7.45192"><ele></ele><time>2025-8-26T1:44:8Z</time></trkpt>
<trkpt lat="46.20334" lon="7.45181"><ele></ele><time>2025-8-26T1:44:11Z</time></trkpt>
<trkpt lat="46.20332" lon="7.45171"><ele></ele><time>2025-8-26T1:44:14Z</time></trkpt>
<trkpt lat="46.2033" lon="7.45158"><ele></ele><time>2025-8-26T1:44:17Z</time></trkpt>
<trkpt lat="46.2033" lon="7.45149"><ele></ele><time>2025-8-26T1:44:20Z</time></trkpt>
<trkpt lat="46.20334" lon="7.45137"><ele></ele><time>2025-8-26T1:44:23Z</time></trkpt>
<trkpt lat="46.20335" lon="7.45134"><ele></ele><time>2025-8-26T1:44:26Z</time></trkpt>
<trkpt lat="46.20336" lon="7.45131"><ele></ele><time>2025-8-26T1:44:29Z</time></trkpt>
<trkpt lat="46.20336" lon="7.45129"><ele></ele><time>2025-8-26T1:44:32Z</time></trkpt>
<trkpt lat="46.20334" lon="7.45123"><ele></ele><time>2025-8-26T1:44:35Z</time></trkpt>
<trkpt lat="46.20329" lon="7.45114"><ele></ele><time>2025-8-26T1:44:38Z</time></trkpt>
<trkpt lat="46.20325" lon="7.45104"><ele></ele><time>2025-8-26T1:44:41Z</time></trkpt>
<trkpt lat="46.20324" lon="7.45101"><ele></ele><time>2025-8-26T1:44:44Z</time></trkpt>
<trkpt lat="46.2032" lon="7.45094"><ele></ele><time>2025-8-26T1:44:47Z</time></trkpt>
<trkpt lat="46.20319" lon="7.45092"><ele></ele><time>2025-8-26T1:44:50Z</time></trkpt>
<trkpt lat="46.20316" lon="7.45084"><ele></ele><time>2025-8-26T1:44:53Z</time></trkpt>
<trkpt lat="46.20313" lon="7.45078"><ele></ele><time>2025-8-26T1:44:56Z</time></trkpt>
<trkpt lat="46.20313" lon="7.45075"><ele></ele><time>2025-8-26T1:44:59Z</time></trkpt>
<trkpt lat="46.20313" lon="7.45069"><ele></ele><time>2025-8-26T1:45:2Z</time></trkpt>
<trkpt lat="46.20315" lon="7.45064"><ele></ele><time>2025-8-26T1:45:5Z</time></trkpt>
<trkpt lat="46.20316" lon="7.45063"><ele></ele><time>2025-8-26T1:45:8Z</time></trkpt>
<trkpt lat="46.20317" lon="7.45063"><ele></ele><time>2025-8-26T1:45:11Z</time></trkpt>
<trkpt lat="46.20321" lon="7.45061"><ele></ele><time>2025-8-26T1:45:14Z</time></trkpt>
<trkpt lat="46.20328" lon="7.45055"><ele></ele><time>2025-8-26T1:45:17Z</time></trkpt>
<trkpt lat="46.20328" lon="7.45053"><ele></ele><time>2025-8-26T1:45:20Z</time></trkpt>
<trkpt lat="46.20326" lon="7.45056"><ele></ele><time>2025-8-26T1:45:23Z</time></trkpt>
<trkpt lat="46.20325" lon="7.45061"><ele></ele><time>2025-8-26T1:45:26Z</time></trkpt>
<trkpt lat="46.2032" lon="7.45064"><ele></ele><time>2025-8-26T1:45:29Z</time></trkpt>
<trkpt lat="46.20315" lon="7.45065"><ele></ele><time>2025-8-26T1:45:32Z</time></trkpt>
<trkpt lat="46.20314" lon="7.45064"><ele></ele><time>2025-8-26T1:45:35Z</time></trkpt>
<trkpt lat="46.20312" lon="7.45065"><ele></ele><time>2025-8-26T1:45:38Z</time></trkpt>
<trkpt lat="46.20312" lon="7.45065"><ele></ele><time>2025-8-26T1:45:41Z</time></trkpt>
<trkpt lat="46.20313" lon="7.45065"><ele></ele><time>2025-8-26T1:45:44Z</time></trkpt>
<trkpt lat="46.20313" lon="7.45069"><ele></ele><time>2025-8-26T1:45:47Z</time></trkpt>
<trkpt lat="46.20312" lon="7.45069"><ele></ele><time>2025-8-26T1:45:50Z</time></trkpt>
<trkpt lat="46.20312" lon="7.45068"><ele></ele><time>2025-8-26T1:45:53Z</time></trkpt>
<trkpt lat="46.20313" lon="7.45068"><ele></ele><time>2025-8-26T1:45:56Z</time></trkpt>
<trkpt lat="46.20311" lon="7.4507"><ele></ele><time>2025-8-26T1:45:59Z</time></trkpt>
<trkpt lat="46.20311" lon="7.45069"><ele></ele><time>2025-8-26T1:46:2Z</time></trkpt>
<trkpt lat="46.2031" lon="7.4507"><ele></ele><time>2025-8-26T1:46:5Z</time></trkpt>
<trkpt lat="46.20312" lon="7.45069"><ele></ele><time>2025-8-26T1:46:8Z</time></trkpt>
<trkpt lat="46.20313" lon="7.45068"><ele></ele><time>2025-8-26T1:46:11Z</time></trkpt>
<trkpt lat="46.20316" lon="7.45067"><ele></ele><time>2025-8-26T1:46:14Z</time></trkpt>
<trkpt lat="46.20316" lon="7.45067"><ele></ele><time>2025-8-26T1:46:17Z</time></trkpt>
<trkpt lat="46.20314" lon="7.45065"><ele></ele><time>2025-8-26T1:46:20Z</time></trkpt>
<trkpt lat="46.20315" lon="7.45065"><ele></ele><time>2025-8-26T1:46:23Z</time></trkpt>
<trkpt lat="46.20315" lon="7.45065"><ele></ele><time>2025-8-26T1:46:26Z</time></trkpt>
<trkpt lat="46.20315" lon="7.45065"><ele></ele><time>2025-8-26T1:46:29Z</time></trkpt>
<trkpt lat="46.20315" lon="7.45065"><ele></ele><time>2025-8-26T1:46:32Z</time></trkpt>
<trkpt lat="46.20315" lon="7.45063"><ele></ele><time>2025-8-26T1:46:35Z</time></trkpt>
<trkpt lat="46.20311" lon="7.45063"><ele></ele><time>2025-8-26T1:46:38Z</time></trkpt>
<trkpt lat="46.20309" lon="7.45061"><ele></ele><time>2025-8-26T1:46:41Z</time></trkpt>
<trkpt lat="46.20309" lon="7.4506"><ele></ele><time>2025-8-26T1:46:44Z</time></trkpt>
<trkpt lat="46.20311" lon="7.45061"><ele></ele><time>2025-8-26T1:46:47Z</time></trkpt>
<trkpt lat="46.20313" lon="7.45061"><ele></ele><time>2025-8-26T1:46:50Z</time></trkpt>
<trkpt lat="46.20315" lon="7.45063"><ele></ele><time>2025-8-26T1:46:53Z</time></trkpt>
<trkpt lat="46.20314" lon="7.45066"><ele></ele><time>2025-8-26T1:46:56Z</time></trkpt>
<trkpt lat="46.20312" lon="7.45069"><ele></ele><time>2025-8-26T1:46:59Z</time></trkpt>
<trkpt lat="46.20312" lon="7.45068"><ele></ele><time>2025-8-26T1:47:2Z</time></trkpt>
<trkpt lat="46.20311" lon="7.4507"><ele></ele><time>2025-8-26T1:47:5Z</time></trkpt>
<trkpt lat="46.20311" lon="7.4507"><ele></ele><time>2025-8-26T1:47:8Z</time></trkpt>
<trkpt lat="46.20312" lon="7.4507"><ele></ele><time>2025-8-26T1:47:11Z</time></trkpt>
<trkpt lat="46.20314" lon="7.45067"><ele></ele><time>2025-8-26T1:47:14Z</time></trkpt>
<trkpt lat="46.20314" lon="7.45064"><ele></ele><time>2025-8-26T1:47:17Z</time></trkpt>
<trkpt lat="46.20317" lon="7.4506"><ele></ele><time>2025-8-26T1:47:20Z</time></trkpt>
<trkpt lat="46.20319" lon="7.45058"><ele></ele><time>2025-8-26T1:47:23Z</time></trkpt>
<trkpt lat="46.20318" lon="7.45062"><ele></ele><time>2025-8-26T1:47:26Z</time></trkpt>
<trkpt lat="46.20317" lon="7.4506"><ele></ele><time>2025-8-26T1:47:29Z</time></trkpt>
<trkpt lat="46.20317" lon="7.4506"><ele></ele><time>2025-8-26T1:47:32Z</time></trkpt>
<trkpt lat="46.20316" lon="7.45059"><ele></ele><time>2025-8-26T1:47:35Z</time></trkpt>
<trkpt lat="46.20314" lon="7.45059"><ele></ele><time>2025-8-26T1:47:38Z</time></trkpt>
<trkpt lat="46.20314" lon="7.45059"><ele></ele><time>2025-8-26T1:47:41Z</time></trkpt>
<trkpt lat="46.20312" lon="7.4506"><ele></ele><time>2025-8-26T1:47:44Z</time></trkpt>
<trkpt lat="46.20312" lon="7.4506"><ele></ele><time>2025-8-26T1:47:47Z</time></trkpt>
<trkpt lat="46.20311" lon="7.45062"><ele></ele><time>2025-8-26T1:47:50Z</time></trkpt>
<trkpt lat="46.20309" lon="7.45066"><ele></ele><time>2025-8-26T1:47:53Z</time></trkpt>
<trkpt lat="46.20309" lon="7.45071"><ele></ele><time>2025-8-26T1:47:56Z</time></trkpt>
<trkpt lat="46.20312" lon="7.4508"><ele></ele><time>2025-8-26T1:47:59Z</time></trkpt>
<trkpt lat="46.20313" lon="7.45083"><ele></ele><time>2025-8-26T1:48:2Z</time></trkpt>
<trkpt lat="46.20314" lon="7.45084"><ele></ele><time>2025-8-26T1:48:5Z</time></trkpt>
<trkpt lat="46.20315" lon="7.45086"><ele></ele><time>2025-8-26T1:48:8Z</time></trkpt>
<trkpt lat="46.20313" lon="7.45079"><ele></ele><time>2025-8-26T1:48:11Z</time></trkpt>
<trkpt lat="46.20314" lon="7.45063"><ele></ele><time>2025-8-26T1:48:14Z</time></trkpt>
<trkpt lat="46.2032" lon="7.4506"><ele></ele><time>2025-8-26T1:48:17Z</time></trkpt>
<trkpt lat="46.20324" lon="7.45057"><ele></ele><time>2025-8-26T1:48:20Z</time></trkpt>
<trkpt lat="46.20331" lon="7.4505"><ele></ele><time>2025-8-26T1:48:23Z</time></trkpt>
<trkpt lat="46.2033" lon="7.45053"><ele></ele><time>2025-8-26T1:48:26Z</time></trkpt>
<trkpt lat="46.20323" lon="7.4506"><ele></ele><time>2025-8-26T1:48:29Z</time></trkpt>
<trkpt lat="46.20313" lon="7.45068"><ele></ele><time>2025-8-26T1:48:32Z</time></trkpt>
<trkpt lat="46.20312" lon="7.45071"><ele></ele><time>2025-8-26T1:48:35Z</time></trkpt>
<trkpt lat="46.20312" lon="7.45076"><ele></ele><time>2025-8-26T1:48:38Z</time></trkpt>
<trkpt lat="46.20314" lon="7.45081"><ele></ele><time>2025-8-26T1:48:41Z</time></trkpt>
<trkpt lat="46.20315" lon="7.45083"><ele></ele><time>2025-8-26T1:48:44Z</time></trkpt>
<trkpt lat="46.20316" lon="7.45085"><ele></ele><time>2025-8-26T1:48:47Z</time></trkpt>
<trkpt lat="46.20316" lon="7.45085"><ele></ele><time>2025-8-26T1:48:50Z</time></trkpt>
<trkpt lat="46.20315" lon="7.45083"><ele></ele><time>2025-8-26T1:48:53Z</time></trkpt>
<trkpt lat="46.20312" lon="7.45076"><ele></ele><time>2025-8-26T1:48:56Z</time></trkpt>
<trkpt lat="46.20313" lon="7.45069"><ele></ele><time>2025-8-26T1:48:59Z</time></trkpt>
<trkpt lat="46.20317" lon="7.45061"><ele></ele><time>2025-8-26T1:49:2Z</time></trkpt>
<trkpt lat="46.20318" lon="7.45059"><ele></ele><time>2025-8-26T1:49:5Z</time></trkpt>
<trkpt lat="46.20318" lon="7.45055"><ele></ele><time>2025-8-26T1:49:8Z</time></trkpt>
<trkpt lat="46.20318" lon="7.45054"><ele></ele><time>2025-8-26T1:49:11Z</time></trkpt>
<trkpt lat="46.20319" lon="7.45052"><ele></ele><time>2025-8-26T1:49:14Z</time></trkpt>
<trkpt lat="46.20319" lon="7.45052"><ele></ele><time>2025-8-26T1:49:17Z</time></trkpt>
<trkpt lat="46.2032" lon="7.45051"><ele></ele><time>2025-8-26T1:49:20Z</time></trkpt>
<trkpt lat="46.20321" lon="7.45053"><ele></ele><time>2025-8-26T1:49:23Z</time></trkpt>
<trkpt lat="46.20322" lon="7.45053"><ele></ele><time>2025-8-26T1:49:26Z</time></trkpt>
<trkpt lat="46.20322" lon="7.45052"><ele></ele><time>2025-8-26T1:49:29Z</time></trkpt>
<trkpt lat="46.20322" lon="7.45053"><ele></ele><time>2025-8-26T1:49:32Z</time></trkpt>
<trkpt lat="46.20321" lon="7.45053"><ele></ele><time>2025-8-26T1:49:35Z</time></trkpt>
<trkpt lat="46.20321" lon="7.45057"><ele></ele><time>2025-8-26T1:49:38Z</time></trkpt>
<trkpt lat="46.20321" lon="7.4506"><ele></ele><time>2025-8-26T1:49:41Z</time></trkpt>
<trkpt lat="46.20319" lon="7.45062"><ele></ele><time>2025-8-26T1:49:44Z</time></trkpt>
<trkpt lat="46.20319" lon="7.45063"><ele></ele><time>2025-8-26T1:49:47Z</time></trkpt>
<trkpt lat="46.20318" lon="7.45064"><ele></ele><time>2025-8-26T1:49:50Z</time></trkpt>
<trkpt lat="46.2032" lon="7.45062"><ele></ele><time>2025-8-26T1:49:53Z</time></trkpt>
<trkpt lat="46.20323" lon="7.45061"><ele></ele><time>2025-8-26T1:49:56Z</time></trkpt>
<trkpt lat="46.20331" lon="7.45054"><ele></ele><time>2025-8-26T1:49:59Z</time></trkpt>
<trkpt lat="46.20331" lon="7.45055"><ele></ele><time>2025-8-26T1:50:2Z</time></trkpt>
<trkpt lat="46.20325" lon="7.45059"><ele></ele><time>2025-8-26T1:50:5Z</time></trkpt>
<trkpt lat="46.20312" lon="7.45069"><ele></ele><time>2025-8-26T1:50:8Z</time></trkpt>
<trkpt lat="46.20311" lon="7.45072"><ele></ele><time>2025-8-26T1:50:11Z</time></trkpt>
<trkpt lat="46.20312" lon="7.45076"><ele></ele><time>2025-8-26T1:50:14Z</time></trkpt>
<trkpt lat="46.20312" lon="7.45082"><ele></ele><time>2025-8-26T1:50:17Z</time></trkpt>
<trkpt lat="46.20315" lon="7.45089"><ele></ele><time>2025-8-26T1:50:20Z</time></trkpt>
<trkpt lat="46.20315" lon="7.4509"><ele></ele><time>2025-8-26T1:50:23Z</time></trkpt>
<trkpt lat="46.20313" lon="7.45088"><ele></ele><time>2025-8-26T1:50:26Z</time></trkpt>
<trkpt lat="46.20313" lon="7.45083"><ele></ele><time>2025-8-26T1:50:29Z</time></trkpt>
<trkpt lat="46.20317" lon="7.45064"><ele></ele><time>2025-8-26T1:50:32Z</time></trkpt>
<trkpt lat="46.20325" lon="7.45058"><ele></ele><time>2025-8-26T1:50:35Z</time></trkpt>
<trkpt lat="46.2033" lon="7.45052"><ele></ele><time>2025-8-26T1:50:38Z</time></trkpt>
<trkpt lat="46.20333" lon="7.45049"><ele></ele><time>2025-8-26T1:50:41Z</time></trkpt>
<trkpt lat="46.2033" lon="7.45052"><ele></ele><time>2025-8-26T1:50:44Z</time></trkpt>
<trkpt lat="46.20328" lon="7.45054"><ele></ele><time>2025-8-26T1:50:47Z</time></trkpt>
<trkpt lat="46.20316" lon="7.45062"><ele></ele><time>2025-8-26T1:50:50Z</time></trkpt>
<trkpt lat="46.20313" lon="7.45068"><ele></ele><time>2025-8-26T1:50:53Z</time></trkpt>
<trkpt lat="46.20312" lon="7.45071"><ele></ele><time>2025-8-26T1:50:56Z</time></trkpt>
<trkpt lat="46.20314" lon="7.45075"><ele></ele><time>2025-8-26T1:50:59Z</time></trkpt>
<trkpt lat="46.20315" lon="7.45075"><ele></ele><time>2025-8-26T1:51:2Z</time></trkpt>
<trkpt lat="46.20314" lon="7.45073"><ele></ele><time>2025-8-26T1:51:5Z</time></trkpt>
<trkpt lat="46.20315" lon="7.45066"><ele></ele><time>2025-8-26T1:51:8Z</time></trkpt>
<trkpt lat="46.20318" lon="7.45061"><ele></ele><time>2025-8-26T1:51:11Z</time></trkpt>
<trkpt lat="46.2032" lon="7.4506"><ele></ele><time>2025-8-26T1:51:14Z</time></trkpt>
<trkpt lat="46.2032" lon="7.45061"><ele></ele><time>2025-8-26T1:51:17Z</time></trkpt>
<trkpt lat="46.20319" lon="7.4506"><ele></ele><time>2025-8-26T1:51:20Z</time></trkpt>
<trkpt lat="46.2032" lon="7.4506"><ele></ele><time>2025-8-26T1:51:23Z</time></trkpt>
<trkpt lat="46.20321" lon="7.4506"><ele></ele><time>2025-8-26T1:51:26Z</time></trkpt>
<trkpt lat="46.20323" lon="7.45059"><ele></ele><time>2025-8-26T1:51:29Z</time></trkpt>
<trkpt lat="46.20327" lon="7.45056"><ele></ele><time>2025-8-26T1:51:32Z</time></trkpt>
<trkpt lat="46.20329" lon="7.45055"><ele></ele><time>2025-8-26T1:51:35Z</time></trkpt>
<trkpt lat="46.2033" lon="7.45055"><ele></ele><time>2025-8-26T1:51:38Z</time></trkpt>
<trkpt lat="46.2033" lon="7.45054"><ele></ele><time>2025-8-26T1:51:41Z</time></trkpt>
<trkpt lat="46.20328" lon="7.45052"><ele></ele><time>2025-8-26T1:51:44Z</time></trkpt>
<trkpt lat="46.20328" lon="7.45051"><ele></ele><time>2025-8-26T1:51:47Z</time></trkpt>
<trkpt lat="46.20328" lon="7.45051"><ele></ele><time>2025-8-26T1:51:50Z</time></trkpt>
<trkpt lat="46.20328" lon="7.45051"><ele></ele><time>2025-8-26T1:51:53Z</time></trkpt>
<trkpt lat="46.20328" lon="7.45055"><ele></ele><time>2025-8-26T1:51:56Z</time></trkpt>
<trkpt lat="46.20327" lon="7.45053"><ele></ele><time>2025-8-26T1:51:59Z</time></trkpt>
<trkpt lat="46.20326" lon="7.45051"><ele></ele><time>2025-8-26T1:52:2Z</time></trkpt>
<trkpt lat="46.20328" lon="7.45051"><ele></ele><time>2025-8-26T1:52:5Z</time></trkpt>
<trkpt lat="46.20328" lon="7.45051"><ele></ele><time>2025-8-26T1:52:8Z</time></trkpt>
<trkpt lat="46.20328" lon="7.45051"><ele></ele><time>2025-8-26T1:52:11Z</time></trkpt>
<trkpt lat="46.20328" lon="7.45051"><ele></ele><time>2025-8-26T1:52:14Z</time></trkpt>
<trkpt lat="46.2033" lon="7.4505"><ele></ele><time>2025-8-26T1:52:17Z</time></trkpt>
<trkpt lat="46.20335" lon="7.45044"><ele></ele><time>2025-8-26T1:52:20Z</time></trkpt>
<trkpt lat="46.20335" lon="7.45045"><ele></ele><time>2025-8-26T1:52:23Z</time></trkpt>
<trkpt lat="46.20333" lon="7.45046"><ele></ele><time>2025-8-26T1:52:26Z</time></trkpt>
<trkpt lat="46.20332" lon="7.45047"><ele></ele><time>2025-8-26T1:52:29Z</time></trkpt>
<trkpt lat="46.20323" lon="7.45058"><ele></ele><time>2025-8-26T1:52:32Z</time></trkpt>
<trkpt lat="46.20313" lon="7.45066"><ele></ele><time>2025-8-26T1:52:35Z</time></trkpt>
<trkpt lat="46.20313" lon="7.45073"><ele></ele><time>2025-8-26T1:52:38Z</time></trkpt>
<trkpt lat="46.20313" lon="7.45077"><ele></ele><time>2025-8-26T1:52:41Z</time></trkpt>
<trkpt lat="46.20313" lon="7.4508"><ele></ele><time>2025-8-26T1:52:44Z</time></trkpt>
<trkpt lat="46.20314" lon="7.45083"><ele></ele><time>2025-8-26T1:52:47Z</time></trkpt>
<trkpt lat="46.20317" lon="7.4509"><ele></ele><time>2025-8-26T1:52:50Z</time></trkpt>
<trkpt lat="46.20317" lon="7.4509"><ele></ele><time>2025-8-26T1:52:53Z</time></trkpt>
<trkpt lat="46.20316" lon="7.4509"><ele></ele><time>2025-8-26T1:52:56Z</time></trkpt>
<trkpt lat="46.20313" lon="7.45082"><ele></ele><time>2025-8-26T1:52:59Z</time></trkpt>
<trkpt lat="46.20312" lon="7.45071"><ele></ele><time>2025-8-26T1:53:2Z</time></trkpt>
<trkpt lat="46.20315" lon="7.45065"><ele></ele><time>2025-8-26T1:53:5Z</time></trkpt>
<trkpt lat="46.20318" lon="7.45063"><ele></ele><time>2025-8-26T1:53:8Z</time></trkpt>
<trkpt lat="46.20322" lon="7.45061"><ele></ele><time>2025-8-26T1:53:11Z</time></trkpt>
<trkpt lat="46.20334" lon="7.45049"><ele></ele><time>2025-8-26T1:53:14Z</time></trkpt>
<trkpt lat="46.20335" lon="7.45047"><ele></ele><time>2025-8-26T1:53:17Z</time></trkpt>
<trkpt lat="46.20332" lon="7.45051"><ele></ele><time>2025-8-26T1:53:20Z</time></trkpt>
<trkpt lat="46.20325" lon="7.45057"><ele></ele><time>2025-8-26T1:53:23Z</time></trkpt>
<trkpt lat="46.20324" lon="7.45059"><ele></ele><time>2025-8-26T1:53:26Z</time></trkpt>
<trkpt lat="46.20324" lon="7.4506"><ele></ele><time>2025-8-26T1:53:29Z</time></trkpt>
<trkpt lat="46.20322" lon="7.45065"><ele></ele><time>2025-8-26T1:53:32Z</time></trkpt>
<trkpt lat="46.20322" lon="7.45065"><ele></ele><time>2025-8-26T1:53:35Z</time></trkpt>
<trkpt lat="46.20323" lon="7.45066"><ele></ele><time>2025-8-26T1:53:38Z</time></trkpt>
<trkpt lat="46.20323" lon="7.45066"><ele></ele><time>2025-8-26T1:53:41Z</time></trkpt>
<trkpt lat="46.20323" lon="7.45067"><ele></ele><time>2025-8-26T1:53:44Z</time></trkpt>
<trkpt lat="46.20323" lon="7.45067"><ele></ele><time>2025-8-26T1:53:47Z</time></trkpt>
<trkpt lat="46.20324" lon="7.45067"><ele></ele><time>2025-8-26T1:53:50Z</time></trkpt>
<trkpt lat="46.20324" lon="7.45067"><ele></ele><time>2025-8-26T1:53:53Z</time></trkpt>
<trkpt lat="46.20326" lon="7.45064"><ele></ele><time>2025-8-26T1:53:56Z</time></trkpt>
<trkpt lat="46.20328" lon="7.45059"><ele></ele><time>2025-8-26T1:53:59Z</time></trkpt>
<trkpt lat="46.20329" lon="7.45059"><ele></ele><time>2025-8-26T1:54:2Z</time></trkpt>
<trkpt lat="46.20329" lon="7.45059"><ele></ele><time>2025-8-26T1:54:5Z</time></trkpt>
<trkpt lat="46.20329" lon="7.45059"><ele></ele><time>2025-8-26T1:54:8Z</time></trkpt>
<trkpt lat="46.20329" lon="7.45058"><ele></ele><time>2025-8-26T1:54:11Z</time></trkpt>
<trkpt lat="46.20327" lon="7.45058"><ele></ele><time>2025-8-26T1:54:14Z</time></trkpt>
<trkpt lat="46.20322" lon="7.45061"><ele></ele><time>2025-8-26T1:54:17Z</time></trkpt>
<trkpt lat="46.2031" lon="7.45071"><ele></ele><time>2025-8-26T1:54:20Z</time></trkpt>
<trkpt lat="46.2031" lon="7.45074"><ele></ele><time>2025-8-26T1:54:23Z</time></trkpt>
<trkpt lat="46.20312" lon="7.45079"><ele></ele><time>2025-8-26T1:54:26Z</time></trkpt>
<trkpt lat="46.20312" lon="7.45082"><ele></ele><time>2025-8-26T1:54:29Z</time></trkpt>
<trkpt lat="46.20313" lon="7.45087"><ele></ele><time>2025-8-26T1:54:32Z</time></trkpt>
<trkpt lat="46.20314" lon="7.45087"><ele></ele><time>2025-8-26T1:54:35Z</time></trkpt>
<trkpt lat="46.20314" lon="7.45086"><ele></ele><time>2025-8-26T1:54:38Z</time></trkpt>
<trkpt lat="46.20312" lon="7.45084"><ele></ele><time>2025-8-26T1:54:41Z</time></trkpt>
<trkpt lat="46.20312" lon="7.45069"><ele></ele><time>2025-8-26T1:54:44Z</time></trkpt>
<trkpt lat="46.20315" lon="7.45066"><ele></ele><time>2025-8-26T1:54:47Z</time></trkpt>
<trkpt lat="46.20318" lon="7.45064"><ele></ele><time>2025-8-26T1:54:50Z</time></trkpt>
<trkpt lat="46.20328" lon="7.45054"><ele></ele><time>2025-8-26T1:54:53Z</time></trkpt>
<trkpt lat="46.20334" lon="7.45046"><ele></ele><time>2025-8-26T1:54:56Z</time></trkpt>
<trkpt lat="46.20333" lon="7.45048"><ele></ele><time>2025-8-26T1:54:59Z</time></trkpt>
<trkpt lat="46.2033" lon="7.45051"><ele></ele><time>2025-8-26T1:55:2Z</time></trkpt>
<trkpt lat="46.20326" lon="7.45057"><ele></ele><time>2025-8-26T1:55:5Z</time></trkpt>
<trkpt lat="46.20324" lon="7.45059"><ele></ele><time>2025-8-26T1:55:8Z</time></trkpt>
<trkpt lat="46.20324" lon="7.45063"><ele></ele><time>2025-8-26T1:55:11Z</time></trkpt>
<trkpt lat="46.20324" lon="7.45066"><ele></ele><time>2025-8-26T1:55:14Z</time></trkpt>
<trkpt lat="46.20324" lon="7.45066"><ele></ele><time>2025-8-26T1:55:17Z</time></trkpt>
<trkpt lat="46.20324" lon="7.45065"><ele></ele><time>2025-8-26T1:55:20Z</time></trkpt>
<trkpt lat="46.20323" lon="7.45065"><ele></ele><time>2025-8-26T1:55:23Z</time></trkpt>
<trkpt lat="46.20323" lon="7.45065"><ele></ele><time>2025-8-26T1:55:26Z</time></trkpt>
<trkpt lat="46.20323" lon="7.45064"><ele></ele><time>2025-8-26T1:55:29Z</time></trkpt>
<trkpt lat="46.20323" lon="7.45065"><ele></ele><time>2025-8-26T1:55:32Z</time></trkpt>
<trkpt lat="46.2032" lon="7.45061"><ele></ele><time>2025-8-26T1:55:35Z</time></trkpt>
<trkpt lat="46.20321" lon="7.45062"><ele></ele><time>2025-8-26T1:55:38Z</time></trkpt>
<trkpt lat="46.20319" lon="7.45068"><ele></ele><time>2025-8-26T1:55:41Z</time></trkpt>
<trkpt lat="46.20319" lon="7.45072"><ele></ele><time>2025-8-26T1:55:44Z</time></trkpt>
<trkpt lat="46.20319" lon="7.45073"><ele></ele><time>2025-8-26T1:55:47Z</time></trkpt>
<trkpt lat="46.20319" lon="7.45069"><ele></ele><time>2025-8-26T1:55:50Z</time></trkpt>
<trkpt lat="46.20319" lon="7.45064"><ele></ele><time>2025-8-26T1:55:53Z</time></trkpt>
<trkpt lat="46.20321" lon="7.45065"><ele></ele><time>2025-8-26T1:55:56Z</time></trkpt>
<trkpt lat="46.20321" lon="7.45066"><ele></ele><time>2025-8-26T1:55:59Z</time></trkpt>
<trkpt lat="46.20322" lon="7.45066"><ele></ele><time>2025-8-26T1:56:2Z</time></trkpt>
<trkpt lat="46.20322" lon="7.45066"><ele></ele><time>2025-8-26T1:56:5Z</time></trkpt>
<trkpt lat="46.20322" lon="7.45066"><ele></ele><time>2025-8-26T1:56:8Z</time></trkpt>
<trkpt lat="46.20323" lon="7.45065"><ele></ele><time>2025-8-26T1:56:11Z</time></trkpt>
<trkpt lat="46.20322" lon="7.45065"><ele></ele><time>2025-8-26T1:56:14Z</time></trkpt>
<trkpt lat="46.20321" lon="7.45064"><ele></ele><time>2025-8-26T1:56:17Z</time></trkpt>
<trkpt lat="46.20321" lon="7.45064"><ele></ele><time>2025-8-26T1:56:20Z</time></trkpt>
<trkpt lat="46.20322" lon="7.45063"><ele></ele><time>2025-8-26T1:56:23Z</time></trkpt>
<trkpt lat="46.20322" lon="7.45062"><ele></ele><time>2025-8-26T1:56:26Z</time></trkpt>
<trkpt lat="46.20321" lon="7.45063"><ele></ele><time>2025-8-26T1:56:29Z</time></trkpt>
<trkpt lat="46.20313" lon="7.45068"><ele></ele><time>2025-8-26T1:56:32Z</time></trkpt>
<trkpt lat="46.2031" lon="7.45075"><ele></ele><time>2025-8-26T1:56:35Z</time></trkpt>
<trkpt lat="46.20312" lon="7.45079"><ele></ele><time>2025-8-26T1:56:38Z</time></trkpt>
<trkpt lat="46.20313" lon="7.45083"><ele></ele><time>2025-8-26T1:56:41Z</time></trkpt>
<trkpt lat="46.20316" lon="7.4509"><ele></ele><time>2025-8-26T1:56:44Z</time></trkpt>
<trkpt lat="46.20317" lon="7.45093"><ele></ele><time>2025-8-26T1:56:47Z</time></trkpt>
<trkpt lat="46.2032" lon="7.45099"><ele></ele><time>2025-8-26T1:56:50Z</time></trkpt>
<trkpt lat="46.2032" lon="7.45103"><ele></ele><time>2025-8-26T1:56:53Z</time></trkpt>
<trkpt lat="46.20322" lon="7.45106"><ele></ele><time>2025-8-26T1:56:56Z</time></trkpt>
<trkpt lat="46.20325" lon="7.45112"><ele></ele><time>2025-8-26T1:56:59Z</time></trkpt>
<trkpt lat="46.20327" lon="7.45115"><ele></ele><time>2025-8-26T1:57:2Z</time></trkpt>
<trkpt lat="46.20328" lon="7.45116"><ele></ele><time>2025-8-26T1:57:5Z</time></trkpt>
<trkpt lat="46.20329" lon="7.45119"><ele></ele><time>2025-8-26T1:57:8Z</time></trkpt>
<trkpt lat="46.20334" lon="7.45125"><ele></ele><time>2025-8-26T1:57:11Z</time></trkpt>
<trkpt lat="46.20334" lon="7.45127"><ele></ele><time>2025-8-26T1:57:14Z</time></trkpt>
<trkpt lat="46.20334" lon="7.45133"><ele></ele><time>2025-8-26T1:57:17Z</time></trkpt>
<trkpt lat="46.20332" lon="7.45136"><ele></ele><time>2025-8-26T1:57:20Z</time></trkpt>
<trkpt lat="46.2033" lon="7.45135"><ele></ele><time>2025-8-26T1:57:23Z</time></trkpt>
<trkpt lat="46.20324" lon="7.45129"><ele></ele><time>2025-8-26T1:57:26Z</time></trkpt>
<trkpt lat="46.2032" lon="7.45122"><ele></ele><time>2025-8-26T1:57:29Z</time></trkpt>
<trkpt lat="46.20319" lon="7.45119"><ele></ele><time>2025-8-26T1:57:32Z</time></trkpt>
<trkpt lat="46.20317" lon="7.45117"><ele></ele><time>2025-8-26T1:57:35Z</time></trkpt>
<trkpt lat="46.20307" lon="7.45101"><ele></ele><time>2025-8-26T1:57:38Z</time></trkpt>
<trkpt lat="46.20293" lon="7.4508"><ele></ele><time>2025-8-26T1:57:41Z</time></trkpt>
<trkpt lat="46.2029" lon="7.45075"><ele></ele><time>2025-8-26T1:57:44Z</time></trkpt>
<trkpt lat="46.20288" lon="7.4507"><ele></ele><time>2025-8-26T1:57:47Z</time></trkpt>
<trkpt lat="46.20284" lon="7.45057"><ele></ele><time>2025-8-26T1:57:50Z</time></trkpt>
<trkpt lat="46.20283" lon="7.4505"><ele></ele><time>2025-8-26T1:57:53Z</time></trkpt>
<trkpt lat="46.20278" lon="7.4503"><ele></ele><time>2025-8-26T1:57:56Z</time></trkpt>
<trkpt lat="46.20274" lon="7.4501"><ele></ele><time>2025-8-26T1:57:59Z</time></trkpt>
<trkpt lat="46.20269" lon="7.44992"><ele></ele><time>2025-8-26T1:58:2Z</time></trkpt>
<trkpt lat="46.20263" lon="7.44982"><ele></ele><time>2025-8-26T1:58:5Z</time></trkpt>
<trkpt lat="46.2026" lon="7.44977"><ele></ele><time>2025-8-26T1:58:8Z</time></trkpt>
<trkpt lat="46.20248" lon="7.44968"><ele></ele><time>2025-8-26T1:58:11Z</time></trkpt>
<trkpt lat="46.20243" lon="7.44966"><ele></ele><time>2025-8-26T1:58:14Z</time></trkpt>
<trkpt lat="46.20237" lon="7.44966"><ele></ele><time>2025-8-26T1:58:17Z</time></trkpt>
<trkpt lat="46.20226" lon="7.44969"><ele></ele><time>2025-8-26T1:58:20Z</time></trkpt>
<trkpt lat="46.2022" lon="7.44972"><ele></ele><time>2025-8-26T1:58:23Z</time></trkpt>
<trkpt lat="46.20215" lon="7.44975"><ele></ele><time>2025-8-26T1:58:26Z</time></trkpt>
<trkpt lat="46.20198" lon="7.44983"><ele></ele><time>2025-8-26T1:58:29Z</time></trkpt>
<trkpt lat="46.20188" lon="7.4499"><ele></ele><time>2025-8-26T1:58:32Z</time></trkpt>
<trkpt lat="46.20178" lon="7.45"><ele></ele><time>2025-8-26T1:58:35Z</time></trkpt>
<trkpt lat="46.20169" lon="7.45009"><ele></ele><time>2025-8-26T1:58:38Z</time></trkpt>
<trkpt lat="46.20161" lon="7.4502"><ele></ele><time>2025-8-26T1:58:41Z</time></trkpt>
<trkpt lat="46.20158" lon="7.45027"><ele></ele><time>2025-8-26T1:58:44Z</time></trkpt>
<trkpt lat="46.20155" lon="7.45034"><ele></ele><time>2025-8-26T1:58:47Z</time></trkpt>
<trkpt lat="46.2015" lon="7.45055"><ele></ele><time>2025-8-26T1:58:50Z</time></trkpt>
<trkpt lat="46.20149" lon="7.45063"><ele></ele><time>2025-8-26T1:58:53Z</time></trkpt>
<trkpt lat="46.20143" lon="7.45096"><ele></ele><time>2025-8-26T1:58:56Z</time></trkpt>
<trkpt lat="46.20135" lon="7.45122"><ele></ele><time>2025-8-26T1:58:59Z</time></trkpt>
<trkpt lat="46.20127" lon="7.45138"><ele></ele><time>2025-8-26T1:59:2Z</time></trkpt>
<trkpt lat="46.20123" lon="7.45144"><ele></ele><time>2025-8-26T1:59:5Z</time></trkpt>
<trkpt lat="46.20113" lon="7.45154"><ele></ele><time>2025-8-26T1:59:8Z</time></trkpt>
<trkpt lat="46.20108" lon="7.45157"><ele></ele><time>2025-8-26T1:59:11Z</time></trkpt>
<trkpt lat="46.20102" lon="7.45158"><ele></ele><time>2025-8-26T1:59:14Z</time></trkpt>
<trkpt lat="46.20096" lon="7.45159"><ele></ele><time>2025-8-26T1:59:17Z</time></trkpt>
<trkpt lat="46.20084" lon="7.45162"><ele></ele><time>2025-8-26T1:59:20Z</time></trkpt>
<trkpt lat="46.20071" lon="7.45167"><ele></ele><time>2025-8-26T1:59:23Z</time></trkpt>
<trkpt lat="46.2006" lon="7.45174"><ele></ele><time>2025-8-26T1:59:26Z</time></trkpt>
<trkpt lat="46.20056" lon="7.45176"><ele></ele><time>2025-8-26T1:59:29Z</time></trkpt>
<trkpt lat="46.20047" lon="7.45183"><ele></ele><time>2025-8-26T1:59:32Z</time></trkpt>
<trkpt lat="46.20038" lon="7.45192"><ele></ele><time>2025-8-26T1:59:35Z</time></trkpt>
<trkpt lat="46.20024" lon="7.45208"><ele></ele><time>2025-8-26T1:59:38Z</time></trkpt>
<trkpt lat="46.20021" lon="7.45214"><ele></ele><time>2025-8-26T1:59:41Z</time></trkpt>
<trkpt lat="46.20014" lon="7.45226"><ele></ele><time>2025-8-26T1:59:44Z</time></trkpt>
<trkpt lat="46.20004" lon="7.45249"><ele></ele><time>2025-8-26T1:59:47Z</time></trkpt>
<trkpt lat="46.19999" lon="7.45264"><ele></ele><time>2025-8-26T1:59:50Z</time></trkpt>
<trkpt lat="46.19996" lon="7.45285"><ele></ele><time>2025-8-26T1:59:53Z</time></trkpt>
<trkpt lat="46.19993" lon="7.45296"><ele></ele><time>2025-8-26T1:59:56Z</time></trkpt>
<trkpt lat="46.19991" lon="7.45298"><ele></ele><time>2025-8-26T1:59:59Z</time></trkpt>
<trkpt lat="46.19989" lon="7.45298"><ele></ele><time>2025-8-26T2:0:2Z</time></trkpt>
<trkpt lat="46.19987" lon="7.45297"><ele></ele><time>2025-8-26T2:0:5Z</time></trkpt>
<trkpt lat="46.19982" lon="7.45292"><ele></ele><time>2025-8-26T2:0:8Z</time></trkpt>
<trkpt lat="46.19981" lon="7.45286"><ele></ele><time>2025-8-26T2:0:11Z</time></trkpt>
<trkpt lat="46.1998" lon="7.45275"><ele></ele><time>2025-8-26T2:0:14Z</time></trkpt>
<trkpt lat="46.19981" lon="7.45271"><ele></ele><time>2025-8-26T2:0:17Z</time></trkpt>
<trkpt lat="46.1998" lon="7.4527"><ele></ele><time>2025-8-26T2:0:20Z</time></trkpt>
<trkpt lat="46.19978" lon="7.4526"><ele></ele><time>2025-8-26T2:0:23Z</time></trkpt>
<trkpt lat="46.19978" lon="7.45246"><ele></ele><time>2025-8-26T2:0:26Z</time></trkpt>
<trkpt lat="46.19977" lon="7.45242"><ele></ele><time>2025-8-26T2:0:29Z</time></trkpt>
<trkpt lat="46.19976" lon="7.45233"><ele></ele><time>2025-8-26T2:0:32Z</time></trkpt>
<trkpt lat="46.19973" lon="7.45226"><ele></ele><time>2025-8-26T2:0:35Z</time></trkpt>
<trkpt lat="46.19971" lon="7.45223"><ele></ele><time>2025-8-26T2:0:38Z</time></trkpt>
<trkpt lat="46.19969" lon="7.4522"><ele></ele><time>2025-8-26T2:0:41Z</time></trkpt>
<trkpt lat="46.19969" lon="7.4521"><ele></ele><time>2025-8-26T2:0:44Z</time></trkpt>
<trkpt lat="46.19968" lon="7.45209"><ele></ele><time>2025-8-26T2:0:47Z</time></trkpt>
<trkpt lat="46.19964" lon="7.45205"><ele></ele><time>2025-8-26T2:0:50Z</time></trkpt>
<trkpt lat="46.19963" lon="7.45204"><ele></ele><time>2025-8-26T2:0:53Z</time></trkpt>
<trkpt lat="46.19961" lon="7.452"><ele></ele><time>2025-8-26T2:0:56Z</time></trkpt>
<trkpt lat="46.19962" lon="7.45196"><ele></ele><time>2025-8-26T2:0:59Z</time></trkpt>
<trkpt lat="46.19962" lon="7.45185"><ele></ele><time>2025-8-26T2:1:2Z</time></trkpt>
<trkpt lat="46.19967" lon="7.45172"><ele></ele><time>2025-8-26T2:1:5Z</time></trkpt>
<trkpt lat="46.19972" lon="7.45162"><ele></ele><time>2025-8-26T2:1:8Z</time></trkpt>
<trkpt lat="46.19972" lon="7.4516"><ele></ele><time>2025-8-26T2:1:11Z</time></trkpt>
<trkpt lat="46.19976" lon="7.45149"><ele></ele><time>2025-8-26T2:1:14Z</time></trkpt>
<trkpt lat="46.19978" lon="7.45148"><ele></ele><time>2025-8-26T2:1:17Z</time></trkpt>
<trkpt lat="46.1998" lon="7.45143"><ele></ele><time>2025-8-26T2:1:20Z</time></trkpt>
<trkpt lat="46.19986" lon="7.45133"><ele></ele><time>2025-8-26T2:1:23Z</time></trkpt>
<trkpt lat="46.19988" lon="7.4513"><ele></ele><time>2025-8-26T2:1:26Z</time></trkpt>
<trkpt lat="46.19993" lon="7.45124"><ele></ele><time>2025-8-26T2:1:29Z</time></trkpt>
<trkpt lat="46.19999" lon="7.45117"><ele></ele><time>2025-8-26T2:1:32Z</time></trkpt>
<trkpt lat="46.20005" lon="7.4511"><ele></ele><time>2025-8-26T2:1:35Z</time></trkpt>
<trkpt lat="46.20011" lon="7.45101"><ele></ele><time>2025-8-26T2:1:38Z</time></trkpt>
<trkpt lat="46.20017" lon="7.45091"><ele></ele><time>2025-8-26T2:1:41Z</time></trkpt>
<trkpt lat="46.2002" lon="7.45086"><ele></ele><time>2025-8-26T2:1:44Z</time></trkpt>
<trkpt lat="46.20023" lon="7.45081"><ele></ele><time>2025-8-26T2:1:47Z</time></trkpt>
<trkpt lat="46.20032" lon="7.45066"><ele></ele><time>2025-8-26T2:1:50Z</time></trkpt>
<trkpt lat="46.20035" lon="7.4506"><ele></ele><time>2025-8-26T2:1:53Z</time></trkpt>
<trkpt lat="46.20038" lon="7.45054"><ele></ele><time>2025-8-26T2:1:56Z</time></trkpt>
<trkpt lat="46.2004" lon="7.45049"><ele></ele><time>2025-8-26T2:1:59Z</time></trkpt>
<trkpt lat="46.20046" lon="7.45037"><ele></ele><time>2025-8-26T2:2:2Z</time></trkpt>
<trkpt lat="46.20049" lon="7.45032"><ele></ele><time>2025-8-26T2:2:5Z</time></trkpt>
<trkpt lat="46.20052" lon="7.45026"><ele></ele><time>2025-8-26T2:2:8Z</time></trkpt>
<trkpt lat="46.20061" lon="7.45009"><ele></ele><time>2025-8-26T2:2:11Z</time></trkpt>
<trkpt lat="46.20066" lon="7.44996"><ele></ele><time>2025-8-26T2:2:14Z</time></trkpt>
<trkpt lat="46.20071" lon="7.44984"><ele></ele><time>2025-8-26T2:2:17Z</time></trkpt>
<trkpt lat="46.20074" lon="7.44971"><ele></ele><time>2025-8-26T2:2:20Z</time></trkpt>
<trkpt lat="46.20077" lon="7.44958"><ele></ele><time>2025-8-26T2:2:23Z</time></trkpt>
<trkpt lat="46.20077" lon="7.44949"><ele></ele><time>2025-8-26T2:2:26Z</time></trkpt>
<trkpt lat="46.20077" lon="7.44939"><ele></ele><time>2025-8-26T2:2:29Z</time></trkpt>
<trkpt lat="46.20077" lon="7.44923"><ele></ele><time>2025-8-26T2:2:32Z</time></trkpt>
<trkpt lat="46.20077" lon="7.44908"><ele></ele><time>2025-8-26T2:2:35Z</time></trkpt>
<trkpt lat="46.20077" lon="7.44893"><ele></ele><time>2025-8-26T2:2:38Z</time></trkpt>
<trkpt lat="46.2008" lon="7.44879"><ele></ele><time>2025-8-26T2:2:41Z</time></trkpt>
<trkpt lat="46.20087" lon="7.44856"><ele></ele><time>2025-8-26T2:2:44Z</time></trkpt>
<trkpt lat="46.20091" lon="7.44848"><ele></ele><time>2025-8-26T2:2:47Z</time></trkpt>
<trkpt lat="46.20093" lon="7.44843"><ele></ele><time>2025-8-26T2:2:50Z</time></trkpt>
<trkpt lat="46.20092" lon="7.44838"><ele></ele><time>2025-8-26T2:2:53Z</time></trkpt>
<trkpt lat="46.2009" lon="7.44836"><ele></ele><time>2025-8-26T2:2:56Z</time></trkpt>
<trkpt lat="46.20085" lon="7.44841"><ele></ele><time>2025-8-26T2:2:59Z</time></trkpt>
<trkpt lat="46.20084" lon="7.44853"><ele></ele><time>2025-8-26T2:3:2Z</time></trkpt>
<trkpt lat="46.20083" lon="7.44858"><ele></ele><time>2025-8-26T2:3:5Z</time></trkpt>
<trkpt lat="46.20077" lon="7.44871"><ele></ele><time>2025-8-26T2:3:8Z</time></trkpt>
<trkpt lat="46.2007" lon="7.44885"><ele></ele><time>2025-8-26T2:3:11Z</time></trkpt>
<trkpt lat="46.20064" lon="7.44897"><ele></ele><time>2025-8-26T2:3:14Z</time></trkpt>
<trkpt lat="46.20061" lon="7.44905"><ele></ele><time>2025-8-26T2:3:17Z</time></trkpt>
<trkpt lat="46.20058" lon="7.44912"><ele></ele><time>2025-8-26T2:3:20Z</time></trkpt>
<trkpt lat="46.20048" lon="7.44928"><ele></ele><time>2025-8-26T2:3:23Z</time></trkpt>
<trkpt lat="46.20044" lon="7.44931"><ele></ele><time>2025-8-26T2:3:26Z</time></trkpt>
<trkpt lat="46.20039" lon="7.44933"><ele></ele><time>2025-8-26T2:3:29Z</time></trkpt>
<trkpt lat="46.20035" lon="7.44937"><ele></ele><time>2025-8-26T2:3:32Z</time></trkpt>
<trkpt lat="46.20032" lon="7.44943"><ele></ele><time>2025-8-26T2:3:35Z</time></trkpt>
<trkpt lat="46.20029" lon="7.4495"><ele></ele><time>2025-8-26T2:3:38Z</time></trkpt>
<trkpt lat="46.20027" lon="7.44957"><ele></ele><time>2025-8-26T2:3:41Z</time></trkpt>
<trkpt lat="46.20025" lon="7.44964"><ele></ele><time>2025-8-26T2:3:44Z</time></trkpt>
<trkpt lat="46.20022" lon="7.44972"><ele></ele><time>2025-8-26T2:3:47Z</time></trkpt>
<trkpt lat="46.20019" lon="7.44978"><ele></ele><time>2025-8-26T2:3:50Z</time></trkpt>
<trkpt lat="46.20016" lon="7.44984"><ele></ele><time>2025-8-26T2:3:53Z</time></trkpt>
<trkpt lat="46.20013" lon="7.44988"><ele></ele><time>2025-8-26T2:3:56Z</time></trkpt>
<trkpt lat="46.20008" lon="7.44991"><ele></ele><time>2025-8-26T2:3:59Z</time></trkpt>
<trkpt lat="46.19999" lon="7.44987"><ele></ele><time>2025-8-26T2:4:2Z</time></trkpt>
<trkpt lat="46.19999" lon="7.44975"><ele></ele><time>2025-8-26T2:4:5Z</time></trkpt>
<trkpt lat="46.20006" lon="7.44964"><ele></ele><time>2025-8-26T2:4:8Z</time></trkpt>
<trkpt lat="46.2001" lon="7.44957"><ele></ele><time>2025-8-26T2:4:11Z</time></trkpt>
<trkpt lat="46.20014" lon="7.44951"><ele></ele><time>2025-8-26T2:4:14Z</time></trkpt>
<trkpt lat="46.20017" lon="7.44943"><ele></ele><time>2025-8-26T2:4:17Z</time></trkpt>
<trkpt lat="46.2002" lon="7.44935"><ele></ele><time>2025-8-26T2:4:20Z</time></trkpt>
<trkpt lat="46.20022" lon="7.44926"><ele></ele><time>2025-8-26T2:4:23Z</time></trkpt>
<trkpt lat="46.20025" lon="7.44908"><ele></ele><time>2025-8-26T2:4:26Z</time></trkpt>
<trkpt lat="46.20025" lon="7.44888"><ele></ele><time>2025-8-26T2:4:29Z</time></trkpt>
<trkpt lat="46.20023" lon="7.44878"><ele></ele><time>2025-8-26T2:4:32Z</time></trkpt>
<trkpt lat="46.2002" lon="7.44859"><ele></ele><time>2025-8-26T2:4:35Z</time></trkpt>
<trkpt lat="46.20015" lon="7.44839"><ele></ele><time>2025-8-26T2:4:38Z</time></trkpt>
<trkpt lat="46.20012" lon="7.44831"><ele></ele><time>2025-8-26T2:4:41Z</time></trkpt>
<trkpt lat="46.20009" lon="7.44824"><ele></ele><time>2025-8-26T2:4:44Z</time></trkpt>
<trkpt lat="46.20006" lon="7.44818"><ele></ele><time>2025-8-26T2:4:47Z</time></trkpt>
<trkpt lat="46.20003" lon="7.44812"><ele></ele><time>2025-8-26T2:4:50Z</time></trkpt>
<trkpt lat="46.20001" lon="7.44806"><ele></ele><time>2025-8-26T2:4:53Z</time></trkpt>
<trkpt lat="46.19998" lon="7.448"><ele></ele><time>2025-8-26T2:4:56Z</time></trkpt>
<trkpt lat="46.19998" lon="7.44793"><ele></ele><time>2025-8-26T2:4:59Z</time></trkpt>
<trkpt lat="46.19998" lon="7.44786"><ele></ele><time>2025-8-26T2:5:2Z</time></trkpt>
<trkpt lat="46.19998" lon="7.44778"><ele></ele><time>2025-8-26T2:5:5Z</time></trkpt>
<trkpt lat="46.2" lon="7.44771"><ele></ele><time>2025-8-26T2:5:8Z</time></trkpt>
<trkpt lat="46.20004" lon="7.44758"><ele></ele><time>2025-8-26T2:5:11Z</time></trkpt>
<trkpt lat="46.2001" lon="7.44745"><ele></ele><time>2025-8-26T2:5:14Z</time></trkpt>
<trkpt lat="46.20015" lon="7.4473"><ele></ele><time>2025-8-26T2:5:17Z</time></trkpt>
<trkpt lat="46.20017" lon="7.44721"><ele></ele><time>2025-8-26T2:5:20Z</time></trkpt>
<trkpt lat="46.20019" lon="7.44713"><ele></ele><time>2025-8-26T2:5:23Z</time></trkpt>
<trkpt lat="46.20023" lon="7.44696"><ele></ele><time>2025-8-26T2:5:26Z</time></trkpt>
<trkpt lat="46.20028" lon="7.44678"><ele></ele><time>2025-8-26T2:5:29Z</time></trkpt>
<trkpt lat="46.20031" lon="7.4466"><ele></ele><time>2025-8-26T2:5:32Z</time></trkpt>
<trkpt lat="46.20034" lon="7.44643"><ele></ele><time>2025-8-26T2:5:35Z</time></trkpt>
<trkpt lat="46.20034" lon="7.44633"><ele></ele><time>2025-8-26T2:5:38Z</time></trkpt>
<trkpt lat="46.20034" lon="7.44623"><ele></ele><time>2025-8-26T2:5:41Z</time></trkpt>
<trkpt lat="46.20035" lon="7.44603"><ele></ele><time>2025-8-26T2:5:44Z</time></trkpt>
<trkpt lat="46.20035" lon="7.44593"><ele></ele><time>2025-8-26T2:5:47Z</time></trkpt>
<trkpt lat="46.20036" lon="7.44584"><ele></ele><time>2025-8-26T2:5:50Z</time></trkpt>
<trkpt lat="46.20038" lon="7.44575"><ele></ele><time>2025-8-26T2:5:53Z</time></trkpt>
<trkpt lat="46.2004" lon="7.44566"><ele></ele><time>2025-8-26T2:5:56Z</time></trkpt>
<trkpt lat="46.20045" lon="7.44549"><ele></ele><time>2025-8-26T2:5:59Z</time></trkpt>
<trkpt lat="46.20047" lon="7.44541"><ele></ele><time>2025-8-26T2:6:2Z</time></trkpt>
<trkpt lat="46.20051" lon="7.44533"><ele></ele><time>2025-8-26T2:6:5Z</time></trkpt>
<trkpt lat="46.20054" lon="7.44524"><ele></ele><time>2025-8-26T2:6:8Z</time></trkpt>
<trkpt lat="46.20057" lon="7.44516"><ele></ele><time>2025-8-26T2:6:11Z</time></trkpt>
<trkpt lat="46.20066" lon="7.44501"><ele></ele><time>2025-8-26T2:6:14Z</time></trkpt>
<trkpt lat="46.20072" lon="7.44494"><ele></ele><time>2025-8-26T2:6:17Z</time></trkpt>
<trkpt lat="46.20078" lon="7.44488"><ele></ele><time>2025-8-26T2:6:20Z</time></trkpt>
<trkpt lat="46.20088" lon="7.44476"><ele></ele><time>2025-8-26T2:6:23Z</time></trkpt>
<trkpt lat="46.20093" lon="7.4447"><ele></ele><time>2025-8-26T2:6:26Z</time></trkpt>
<trkpt lat="46.20097" lon="7.44463"><ele></ele><time>2025-8-26T2:6:29Z</time></trkpt>
<trkpt lat="46.20102" lon="7.44446"><ele></ele><time>2025-8-26T2:6:32Z</time></trkpt>
<trkpt lat="46.20103" lon="7.44436"><ele></ele><time>2025-8-26T2:6:35Z</time></trkpt>
<trkpt lat="46.20103" lon="7.44428"><ele></ele><time>2025-8-26T2:6:38Z</time></trkpt>
<trkpt lat="46.20104" lon="7.4442"><ele></ele><time>2025-8-26T2:6:41Z</time></trkpt>
<trkpt lat="46.20107" lon="7.444"><ele></ele><time>2025-8-26T2:6:44Z</time></trkpt>
<trkpt lat="46.20109" lon="7.4439"><ele></ele><time>2025-8-26T2:6:47Z</time></trkpt>
<trkpt lat="46.20113" lon="7.44381"><ele></ele><time>2025-8-26T2:6:50Z</time></trkpt>
<trkpt lat="46.20116" lon="7.44372"><ele></ele><time>2025-8-26T2:6:53Z</time></trkpt>
<trkpt lat="46.20123" lon="7.44352"><ele></ele><time>2025-8-26T2:6:56Z</time></trkpt>
<trkpt lat="46.20127" lon="7.44343"><ele></ele><time>2025-8-26T2:6:59Z</time></trkpt>
<trkpt lat="46.20136" lon="7.44322"><ele></ele><time>2025-8-26T2:7:2Z</time></trkpt>
<trkpt lat="46.2014" lon="7.44313"><ele></ele><time>2025-8-26T2:7:5Z</time></trkpt>
<trkpt lat="46.20143" lon="7.44303"><ele></ele><time>2025-8-26T2:7:8Z</time></trkpt>
<trkpt lat="46.20147" lon="7.44294"><ele></ele><time>2025-8-26T2:7:11Z</time></trkpt>
<trkpt lat="46.20149" lon="7.44285"><ele></ele><time>2025-8-26T2:7:14Z</time></trkpt>
<trkpt lat="46.20156" lon="7.44266"><ele></ele><time>2025-8-26T2:7:17Z</time></trkpt>
<trkpt lat="46.20159" lon="7.44259"><ele></ele><time>2025-8-26T2:7:20Z</time></trkpt>
<trkpt lat="46.20164" lon="7.44252"><ele></ele><time>2025-8-26T2:7:23Z</time></trkpt>
<trkpt lat="46.20176" lon="7.44244"><ele></ele><time>2025-8-26T2:7:26Z</time></trkpt>
<trkpt lat="46.20182" lon="7.44241"><ele></ele><time>2025-8-26T2:7:29Z</time></trkpt>
<trkpt lat="46.2019" lon="7.4424"><ele></ele><time>2025-8-26T2:7:32Z</time></trkpt>
<trkpt lat="46.20204" lon="7.44239"><ele></ele><time>2025-8-26T2:7:35Z</time></trkpt>
<trkpt lat="46.20211" lon="7.44238"><ele></ele><time>2025-8-26T2:7:38Z</time></trkpt>
<trkpt lat="46.20222" lon="7.44232"><ele></ele><time>2025-8-26T2:7:41Z</time></trkpt>
<trkpt lat="46.20231" lon="7.44222"><ele></ele><time>2025-8-26T2:7:44Z</time></trkpt>
<trkpt lat="46.20234" lon="7.44216"><ele></ele><time>2025-8-26T2:7:47Z</time></trkpt>
<trkpt lat="46.20237" lon="7.4421"><ele></ele><time>2025-8-26T2:7:50Z</time></trkpt>
<trkpt lat="46.20244" lon="7.442"><ele></ele><time>2025-8-26T2:7:53Z</time></trkpt>
<trkpt lat="46.20257" lon="7.44198"><ele></ele><time>2025-8-26T2:7:56Z</time></trkpt>
<trkpt lat="46.20266" lon="7.44204"><ele></ele><time>2025-8-26T2:7:59Z</time></trkpt>
<trkpt lat="46.20281" lon="7.44222"><ele></ele><time>2025-8-26T2:8:2Z</time></trkpt>
<trkpt lat="46.2029" lon="7.44232"><ele></ele><time>2025-8-26T2:8:5Z</time></trkpt>
<trkpt lat="46.203" lon="7.44238"><ele></ele><time>2025-8-26T2:8:8Z</time></trkpt>
<trkpt lat="46.20305" lon="7.44241"><ele></ele><time>2025-8-26T2:8:11Z</time></trkpt>
<trkpt lat="46.20314" lon="7.44246"><ele></ele><time>2025-8-26T2:8:14Z</time></trkpt>
<trkpt lat="46.20324" lon="7.44253"><ele></ele><time>2025-8-26T2:8:17Z</time></trkpt>
<trkpt lat="46.20327" lon="7.4426"><ele></ele><time>2025-8-26T2:8:20Z</time></trkpt>
<trkpt lat="46.20332" lon="7.44267"><ele></ele><time>2025-8-26T2:8:23Z</time></trkpt>
<trkpt lat="46.20337" lon="7.44273"><ele></ele><time>2025-8-26T2:8:26Z</time></trkpt>
<trkpt lat="46.20342" lon="7.44281"><ele></ele><time>2025-8-26T2:8:29Z</time></trkpt>
<trkpt lat="46.20355" lon="7.44292"><ele></ele><time>2025-8-26T2:8:32Z</time></trkpt>
<trkpt lat="46.20369" lon="7.44298"><ele></ele><time>2025-8-26T2:8:35Z</time></trkpt>
<trkpt lat="46.20383" lon="7.44305"><ele></ele><time>2025-8-26T2:8:38Z</time></trkpt>
<trkpt lat="46.2039" lon="7.44311"><ele></ele><time>2025-8-26T2:8:41Z</time></trkpt>
<trkpt lat="46.20396" lon="7.44319"><ele></ele><time>2025-8-26T2:8:44Z</time></trkpt>
<trkpt lat="46.20402" lon="7.44328"><ele></ele><time>2025-8-26T2:8:47Z</time></trkpt>
<trkpt lat="46.20414" lon="7.44347"><ele></ele><time>2025-8-26T2:8:50Z</time></trkpt>
<trkpt lat="46.20424" lon="7.44368"><ele></ele><time>2025-8-26T2:8:53Z</time></trkpt>
<trkpt lat="46.20428" lon="7.44379"><ele></ele><time>2025-8-26T2:8:56Z</time></trkpt>
<trkpt lat="46.20435" lon="7.44398"><ele></ele><time>2025-8-26T2:8:59Z</time></trkpt>
<trkpt lat="46.20445" lon="7.44415"><ele></ele><time>2025-8-26T2:9:2Z</time></trkpt>
<trkpt lat="46.20459" lon="7.44424"><ele></ele><time>2025-8-26T2:9:5Z</time></trkpt>
<trkpt lat="46.20467" lon="7.44426"><ele></ele><time>2025-8-26T2:9:8Z</time></trkpt>
<trkpt lat="46.20482" lon="7.44432"><ele></ele><time>2025-8-26T2:9:11Z</time></trkpt>
<trkpt lat="46.20495" lon="7.4444"><ele></ele><time>2025-8-26T2:9:14Z</time></trkpt>
<trkpt lat="46.20509" lon="7.44452"><ele></ele><time>2025-8-26T2:9:17Z</time></trkpt>
<trkpt lat="46.20523" lon="7.4446"><ele></ele><time>2025-8-26T2:9:20Z</time></trkpt>
<trkpt lat="46.20539" lon="7.44459"><ele></ele><time>2025-8-26T2:9:23Z</time></trkpt>
<trkpt lat="46.20547" lon="7.44458"><ele></ele><time>2025-8-26T2:9:26Z</time></trkpt>
<trkpt lat="46.20555" lon="7.44456"><ele></ele><time>2025-8-26T2:9:29Z</time></trkpt>
<trkpt lat="46.20564" lon="7.44455"><ele></ele><time>2025-8-26T2:9:32Z</time></trkpt>
<trkpt lat="46.20582" lon="7.44454"><ele></ele><time>2025-8-26T2:9:35Z</time></trkpt>
<trkpt lat="46.20591" lon="7.44451"><ele></ele><time>2025-8-26T2:9:38Z</time></trkpt>
<trkpt lat="46.2061" lon="7.44448"><ele></ele><time>2025-8-26T2:9:41Z</time></trkpt>
<trkpt lat="46.20627" lon="7.44445"><ele></ele><time>2025-8-26T2:9:44Z</time></trkpt>
<trkpt lat="46.20635" lon="7.44444"><ele></ele><time>2025-8-26T2:9:47Z</time></trkpt>
<trkpt lat="46.20652" lon="7.44444"><ele></ele><time>2025-8-26T2:9:50Z</time></trkpt>
<trkpt lat="46.2066" lon="7.44443"><ele></ele><time>2025-8-26T2:9:53Z</time></trkpt>
<trkpt lat="46.20675" lon="7.44442"><ele></ele><time>2025-8-26T2:9:56Z</time></trkpt>
<trkpt lat="46.20682" lon="7.44443"><ele></ele><time>2025-8-26T2:9:59Z</time></trkpt>
<trkpt lat="46.20696" lon="7.44449"><ele></ele><time>2025-8-26T2:10:2Z</time></trkpt>
<trkpt lat="46.20703" lon="7.44453"><ele></ele><time>2025-8-26T2:10:5Z</time></trkpt>
<trkpt lat="46.20709" lon="7.44459"><ele></ele><time>2025-8-26T2:10:8Z</time></trkpt>
<trkpt lat="46.20714" lon="7.44466"><ele></ele><time>2025-8-26T2:10:11Z</time></trkpt>
<trkpt lat="46.20724" lon="7.44476"><ele></ele><time>2025-8-26T2:10:14Z</time></trkpt>
<trkpt lat="46.20729" lon="7.44479"><ele></ele><time>2025-8-26T2:10:17Z</time></trkpt>
<trkpt lat="46.20737" lon="7.44479"><ele></ele><time>2025-8-26T2:10:20Z</time></trkpt>
<trkpt lat="46.20738" lon="7.44476"><ele></ele><time>2025-8-26T2:10:23Z</time></trkpt>
<trkpt lat="46.20734" lon="7.44467"><ele></ele><time>2025-8-26T2:10:26Z</time></trkpt>
<trkpt lat="46.20731" lon="7.44462"><ele></ele><time>2025-8-26T2:10:29Z</time></trkpt>
<trkpt lat="46.20722" lon="7.4444"><ele></ele><time>2025-8-26T2:10:32Z</time></trkpt>
<trkpt lat="46.20718" lon="7.44433"><ele></ele><time>2025-8-26T2:10:35Z</time></trkpt>
<trkpt lat="46.20714" lon="7.44426"><ele></ele><time>2025-8-26T2:10:38Z</time></trkpt>
<trkpt lat="46.20705" lon="7.44414"><ele></ele><time>2025-8-26T2:10:41Z</time></trkpt>
<trkpt lat="46.207" lon="7.44408"><ele></ele><time>2025-8-26T2:10:44Z</time></trkpt>
<trkpt lat="46.20696" lon="7.44401"><ele></ele><time>2025-8-26T2:10:47Z</time></trkpt>
<trkpt lat="46.20685" lon="7.44389"><ele></ele><time>2025-8-26T2:10:50Z</time></trkpt>
<trkpt lat="46.20672" lon="7.44377"><ele></ele><time>2025-8-26T2:10:53Z</time></trkpt>
<trkpt lat="46.20659" lon="7.44368"><ele></ele><time>2025-8-26T2:10:56Z</time></trkpt>
<trkpt lat="46.20646" lon="7.44359"><ele></ele><time>2025-8-26T2:10:59Z</time></trkpt>
<trkpt lat="46.20633" lon="7.4435"><ele></ele><time>2025-8-26T2:11:2Z</time></trkpt>
<trkpt lat="46.20621" lon="7.44338"><ele></ele><time>2025-8-26T2:11:5Z</time></trkpt>
<trkpt lat="46.20615" lon="7.4433"><ele></ele><time>2025-8-26T2:11:8Z</time></trkpt>
<trkpt lat="46.2061" lon="7.44322"><ele></ele><time>2025-8-26T2:11:11Z</time></trkpt>
<trkpt lat="46.20601" lon="7.44306"><ele></ele><time>2025-8-26T2:11:14Z</time></trkpt>
<trkpt lat="46.20591" lon="7.44288"><ele></ele><time>2025-8-26T2:11:17Z</time></trkpt>
<trkpt lat="46.20585" lon="7.44266"><ele></ele><time>2025-8-26T2:11:20Z</time></trkpt>
<trkpt lat="46.20583" lon="7.44255"><ele></ele><time>2025-8-26T2:11:23Z</time></trkpt>
<trkpt lat="46.20582" lon="7.44243"><ele></ele><time>2025-8-26T2:11:26Z</time></trkpt>
<trkpt lat="46.20581" lon="7.44219"><ele></ele><time>2025-8-26T2:11:29Z</time></trkpt>
<trkpt lat="46.20581" lon="7.44207"><ele></ele><time>2025-8-26T2:11:32Z</time></trkpt>
<trkpt lat="46.2058" lon="7.44194"><ele></ele><time>2025-8-26T2:11:35Z</time></trkpt>
<trkpt lat="46.20577" lon="7.44171"><ele></ele><time>2025-8-26T2:11:38Z</time></trkpt>
<trkpt lat="46.20574" lon="7.44149"><ele></ele><time>2025-8-26T2:11:41Z</time></trkpt>
<trkpt lat="46.20569" lon="7.44128"><ele></ele><time>2025-8-26T2:11:44Z</time></trkpt>
<trkpt lat="46.20562" lon="7.44109"><ele></ele><time>2025-8-26T2:11:47Z</time></trkpt>
<trkpt lat="46.20557" lon="7.441"><ele></ele><time>2025-8-26T2:11:50Z</time></trkpt>
<trkpt lat="46.20551" lon="7.44092"><ele></ele><time>2025-8-26T2:11:53Z</time></trkpt>
<trkpt lat="46.20544" lon="7.44083"><ele></ele><time>2025-8-26T2:11:56Z</time></trkpt>
<trkpt lat="46.20531" lon="7.44067"><ele></ele><time>2025-8-26T2:11:59Z</time></trkpt>
<trkpt lat="46.20523" lon="7.44059"><ele></ele><time>2025-8-26T2:12:2Z</time></trkpt>
<trkpt lat="46.20515" lon="7.44052"><ele></ele><time>2025-8-26T2:12:5Z</time></trkpt>
<trkpt lat="46.20507" lon="7.44044"><ele></ele><time>2025-8-26T2:12:8Z</time></trkpt>
<trkpt lat="46.20499" lon="7.44037"><ele></ele><time>2025-8-26T2:12:11Z</time></trkpt>
<trkpt lat="46.20491" lon="7.44028"><ele></ele><time>2025-8-26T2:12:14Z</time></trkpt>
<trkpt lat="46.20483" lon="7.4402"><ele></ele><time>2025-8-26T2:12:17Z</time></trkpt>
<trkpt lat="46.20467" lon="7.44005"><ele></ele><time>2025-8-26T2:12:20Z</time></trkpt>
<trkpt lat="46.20453" lon="7.43993"><ele></ele><time>2025-8-26T2:12:23Z</time></trkpt>
<trkpt lat="46.20443" lon="7.43979"><ele></ele><time>2025-8-26T2:12:26Z</time></trkpt>
<trkpt lat="46.20442" lon="7.43971"><ele></ele><time>2025-8-26T2:12:29Z</time></trkpt>
<trkpt lat="46.20444" lon="7.43963"><ele></ele><time>2025-8-26T2:12:32Z</time></trkpt>
<trkpt lat="46.20447" lon="7.43961"><ele></ele><time>2025-8-26T2:12:35Z</time></trkpt>
<trkpt lat="46.20456" lon="7.43965"><ele></ele><time>2025-8-26T2:12:38Z</time></trkpt>
<trkpt lat="46.20462" lon="7.43968"><ele></ele><time>2025-8-26T2:12:41Z</time></trkpt>
<trkpt lat="46.20473" lon="7.43976"><ele></ele><time>2025-8-26T2:12:44Z</time></trkpt>
<trkpt lat="46.20479" lon="7.43979"><ele></ele><time>2025-8-26T2:12:47Z</time></trkpt>
<trkpt lat="46.20492" lon="7.43986"><ele></ele><time>2025-8-26T2:12:50Z</time></trkpt>
<trkpt lat="46.20507" lon="7.43992"><ele></ele><time>2025-8-26T2:12:53Z</time></trkpt>
<trkpt lat="46.20521" lon="7.44002"><ele></ele><time>2025-8-26T2:12:56Z</time></trkpt>
<trkpt lat="46.20528" lon="7.44008"><ele></ele><time>2025-8-26T2:12:59Z</time></trkpt>
<trkpt lat="46.20544" lon="7.44017"><ele></ele><time>2025-8-26T2:13:2Z</time></trkpt>
<trkpt lat="46.20561" lon="7.44027"><ele></ele><time>2025-8-26T2:13:5Z</time></trkpt>
<trkpt lat="46.20578" lon="7.44037"><ele></ele><time>2025-8-26T2:13:8Z</time></trkpt>
<trkpt lat="46.20595" lon="7.44049"><ele></ele><time>2025-8-26T2:13:11Z</time></trkpt>
<trkpt lat="46.20611" lon="7.44063"><ele></ele><time>2025-8-26T2:13:14Z</time></trkpt>
<trkpt lat="46.20619" lon="7.4407"><ele></ele><time>2025-8-26T2:13:17Z</time></trkpt>
<trkpt lat="46.20635" lon="7.44084"><ele></ele><time>2025-8-26T2:13:20Z</time></trkpt>
<trkpt lat="46.20651" lon="7.44097"><ele></ele><time>2025-8-26T2:13:23Z</time></trkpt>
<trkpt lat="46.20667" lon="7.44111"><ele></ele><time>2025-8-26T2:13:26Z</time></trkpt>
<trkpt lat="46.20682" lon="7.44125"><ele></ele><time>2025-8-26T2:13:29Z</time></trkpt>
<trkpt lat="46.2069" lon="7.44131"><ele></ele><time>2025-8-26T2:13:32Z</time></trkpt>
<trkpt lat="46.20698" lon="7.44137"><ele></ele><time>2025-8-26T2:13:35Z</time></trkpt>
<trkpt lat="46.20714" lon="7.44148"><ele></ele><time>2025-8-26T2:13:38Z</time></trkpt>
<trkpt lat="46.20732" lon="7.44157"><ele></ele><time>2025-8-26T2:13:41Z</time></trkpt>
<trkpt lat="46.20751" lon="7.44163"><ele></ele><time>2025-8-26T2:13:44Z</time></trkpt>
<trkpt lat="46.20769" lon="7.44164"><ele></ele><time>2025-8-26T2:13:47Z</time></trkpt>
<trkpt lat="46.20787" lon="7.44161"><ele></ele><time>2025-8-26T2:13:50Z</time></trkpt>
<trkpt lat="46.20805" lon="7.44154"><ele></ele><time>2025-8-26T2:13:53Z</time></trkpt>
<trkpt lat="46.20815" lon="7.44152"><ele></ele><time>2025-8-26T2:13:56Z</time></trkpt>
<trkpt lat="46.20823" lon="7.44149"><ele></ele><time>2025-8-26T2:13:59Z</time></trkpt>
<trkpt lat="46.2084" lon="7.44143"><ele></ele><time>2025-8-26T2:14:2Z</time></trkpt>
<trkpt lat="46.20858" lon="7.44137"><ele></ele><time>2025-8-26T2:14:5Z</time></trkpt>
<trkpt lat="46.20867" lon="7.44133"><ele></ele><time>2025-8-26T2:14:8Z</time></trkpt>
<trkpt lat="46.20887" lon="7.44128"><ele></ele><time>2025-8-26T2:14:11Z</time></trkpt>
<trkpt lat="46.20906" lon="7.44125"><ele></ele><time>2025-8-26T2:14:14Z</time></trkpt>
<trkpt lat="46.20915" lon="7.44124"><ele></ele><time>2025-8-26T2:14:17Z</time></trkpt>
<trkpt lat="46.20924" lon="7.44122"><ele></ele><time>2025-8-26T2:14:20Z</time></trkpt>
<trkpt lat="46.20951" lon="7.44117"><ele></ele><time>2025-8-26T2:14:23Z</time></trkpt>
<trkpt lat="46.2096" lon="7.44114"><ele></ele><time>2025-8-26T2:14:26Z</time></trkpt>
<trkpt lat="46.20969" lon="7.4411"><ele></ele><time>2025-8-26T2:14:29Z</time></trkpt>
<trkpt lat="46.20977" lon="7.44106"><ele></ele><time>2025-8-26T2:14:32Z</time></trkpt>
<trkpt lat="46.20994" lon="7.44096"><ele></ele><time>2025-8-26T2:14:35Z</time></trkpt>
<trkpt lat="46.21002" lon="7.4409"><ele></ele><time>2025-8-26T2:14:38Z</time></trkpt>
<trkpt lat="46.21009" lon="7.44083"><ele></ele><time>2025-8-26T2:14:41Z</time></trkpt>
<trkpt lat="46.21023" lon="7.44067"><ele></ele><time>2025-8-26T2:14:44Z</time></trkpt>
<trkpt lat="46.21036" lon="7.44051"><ele></ele><time>2025-8-26T2:14:47Z</time></trkpt>
<trkpt lat="46.21043" lon="7.44043"><ele></ele><time>2025-8-26T2:14:50Z</time></trkpt>
<trkpt lat="46.21057" lon="7.44028"><ele></ele><time>2025-8-26T2:14:53Z</time></trkpt>
<trkpt lat="46.2107" lon="7.44011"><ele></ele><time>2025-8-26T2:14:56Z</time></trkpt>
<trkpt lat="46.21083" lon="7.43995"><ele></ele><time>2025-8-26T2:14:59Z</time></trkpt>
<trkpt lat="46.21097" lon="7.43976"><ele></ele><time>2025-8-26T2:15:2Z</time></trkpt>
<trkpt lat="46.21114" lon="7.4396"><ele></ele><time>2025-8-26T2:15:5Z</time></trkpt>
<trkpt lat="46.21123" lon="7.43954"><ele></ele><time>2025-8-26T2:15:8Z</time></trkpt>
<trkpt lat="46.21132" lon="7.43947"><ele></ele><time>2025-8-26T2:15:11Z</time></trkpt>
<trkpt lat="46.2114" lon="7.43939"><ele></ele><time>2025-8-26T2:15:14Z</time></trkpt>
<trkpt lat="46.21148" lon="7.4393"><ele></ele><time>2025-8-26T2:15:17Z</time></trkpt>
<trkpt lat="46.21155" lon="7.4392"><ele></ele><time>2025-8-26T2:15:20Z</time></trkpt>
<trkpt lat="46.21161" lon="7.43908"><ele></ele><time>2025-8-26T2:15:23Z</time></trkpt>
<trkpt lat="46.21172" lon="7.43883"><ele></ele><time>2025-8-26T2:15:26Z</time></trkpt>
<trkpt lat="46.21178" lon="7.4387"><ele></ele><time>2025-8-26T2:15:29Z</time></trkpt>
<trkpt lat="46.21184" lon="7.43857"><ele></ele><time>2025-8-26T2:15:32Z</time></trkpt>
<trkpt lat="46.2119" lon="7.43844"><ele></ele><time>2025-8-26T2:15:35Z</time></trkpt>
<trkpt lat="46.21197" lon="7.43831"><ele></ele><time>2025-8-26T2:15:38Z</time></trkpt>
<trkpt lat="46.21204" lon="7.43819"><ele></ele><time>2025-8-26T2:15:41Z</time></trkpt>
<trkpt lat="46.21212" lon="7.43808"><ele></ele><time>2025-8-26T2:15:44Z</time></trkpt>
<trkpt lat="46.2122" lon="7.43798"><ele></ele><time>2025-8-26T2:15:47Z</time></trkpt>
<trkpt lat="46.21243" lon="7.43774"><ele></ele><time>2025-8-26T2:15:50Z</time></trkpt>
<trkpt lat="46.21249" lon="7.43763"><ele></ele><time>2025-8-26T2:15:53Z</time></trkpt>
<trkpt lat="46.21254" lon="7.43752"><ele></ele><time>2025-8-26T2:15:56Z</time></trkpt>
<trkpt lat="46.21259" lon="7.43739"><ele></ele><time>2025-8-26T2:15:59Z</time></trkpt>
<trkpt lat="46.21264" lon="7.43727"><ele></ele><time>2025-8-26T2:16:2Z</time></trkpt>
<trkpt lat="46.21269" lon="7.43715"><ele></ele><time>2025-8-26T2:16:5Z</time></trkpt>
<trkpt lat="46.21281" lon="7.43689"><ele></ele><time>2025-8-26T2:16:8Z</time></trkpt>
<trkpt lat="46.21289" lon="7.43679"><ele></ele><time>2025-8-26T2:16:11Z</time></trkpt>
<trkpt lat="46.21297" lon="7.43671"><ele></ele><time>2025-8-26T2:16:14Z</time></trkpt>
<trkpt lat="46.21306" lon="7.43666"><ele></ele><time>2025-8-26T2:16:17Z</time></trkpt>
<trkpt lat="46.21314" lon="7.43659"><ele></ele><time>2025-8-26T2:16:20Z</time></trkpt>
<trkpt lat="46.21319" lon="7.43651"><ele></ele><time>2025-8-26T2:16:23Z</time></trkpt>
<trkpt lat="46.21321" lon="7.43641"><ele></ele><time>2025-8-26T2:16:26Z</time></trkpt>
<trkpt lat="46.2132" lon="7.43632"><ele></ele><time>2025-8-26T2:16:29Z</time></trkpt>
<trkpt lat="46.2131" lon="7.43624"><ele></ele><time>2025-8-26T2:16:32Z</time></trkpt>
<trkpt lat="46.21305" lon="7.43627"><ele></ele><time>2025-8-26T2:16:35Z</time></trkpt>
<trkpt lat="46.21294" lon="7.43639"><ele></ele><time>2025-8-26T2:16:38Z</time></trkpt>
<trkpt lat="46.21287" lon="7.43645"><ele></ele><time>2025-8-26T2:16:41Z</time></trkpt>
<trkpt lat="46.21272" lon="7.4366"><ele></ele><time>2025-8-26T2:16:44Z</time></trkpt>
<trkpt lat="46.21263" lon="7.43668"><ele></ele><time>2025-8-26T2:16:47Z</time></trkpt>
<trkpt lat="46.21254" lon="7.43676"><ele></ele><time>2025-8-26T2:16:50Z</time></trkpt>
<trkpt lat="46.21245" lon="7.43684"><ele></ele><time>2025-8-26T2:16:53Z</time></trkpt>
<trkpt lat="46.21236" lon="7.43694"><ele></ele><time>2025-8-26T2:16:56Z</time></trkpt>
<trkpt lat="46.21228" lon="7.43705"><ele></ele><time>2025-8-26T2:16:59Z</time></trkpt>
<trkpt lat="46.21222" lon="7.4372"><ele></ele><time>2025-8-26T2:17:2Z</time></trkpt>
<trkpt lat="46.21208" lon="7.43744"><ele></ele><time>2025-8-26T2:17:5Z</time></trkpt>
<trkpt lat="46.21202" lon="7.43754"><ele></ele><time>2025-8-26T2:17:8Z</time></trkpt>
<trkpt lat="46.21192" lon="7.43769"><ele></ele><time>2025-8-26T2:17:11Z</time></trkpt>
<trkpt lat="46.21189" lon="7.43774"><ele></ele><time>2025-8-26T2:17:14Z</time></trkpt>
<trkpt lat="46.21184" lon="7.43784"><ele></ele><time>2025-8-26T2:17:17Z</time></trkpt>
<trkpt lat="46.21179" lon="7.4379"><ele></ele><time>2025-8-26T2:17:20Z</time></trkpt>
<trkpt lat="46.21172" lon="7.438"><ele></ele><time>2025-8-26T2:17:23Z</time></trkpt>
<trkpt lat="46.21166" lon="7.43809"><ele></ele><time>2025-8-26T2:17:26Z</time></trkpt>
<trkpt lat="46.21157" lon="7.43825"><ele></ele><time>2025-8-26T2:17:29Z</time></trkpt>
<trkpt lat="46.21153" lon="7.43831"><ele></ele><time>2025-8-26T2:17:32Z</time></trkpt>
<trkpt lat="46.21139" lon="7.43852"><ele></ele><time>2025-8-26T2:17:35Z</time></trkpt>
<trkpt lat="46.21137" lon="7.43854"><ele></ele><time>2025-8-26T2:17:38Z</time></trkpt>
<trkpt lat="46.21129" lon="7.43864"><ele></ele><time>2025-8-26T2:17:41Z</time></trkpt>
<trkpt lat="46.21126" lon="7.43867"><ele></ele><time>2025-8-26T2:17:44Z</time></trkpt>
<trkpt lat="46.21118" lon="7.43874"><ele></ele><time>2025-8-26T2:17:47Z</time></trkpt>
<trkpt lat="46.2111" lon="7.43878"><ele></ele><time>2025-8-26T2:17:50Z</time></trkpt>
<trkpt lat="46.21107" lon="7.43881"><ele></ele><time>2025-8-26T2:17:53Z</time></trkpt>
<trkpt lat="46.21098" lon="7.43887"><ele></ele><time>2025-8-26T2:17:56Z</time></trkpt>
<trkpt lat="46.21095" lon="7.43889"><ele></ele><time>2025-8-26T2:17:59Z</time></trkpt>
<trkpt lat="46.21086" lon="7.43895"><ele></ele><time>2025-8-26T2:18:2Z</time></trkpt>
<trkpt lat="46.21084" lon="7.43896"><ele></ele><time>2025-8-26T2:18:5Z</time></trkpt>
<trkpt lat="46.21079" lon="7.43899"><ele></ele><time>2025-8-26T2:18:8Z</time></trkpt>
<trkpt lat="46.21076" lon="7.43902"><ele></ele><time>2025-8-26T2:18:11Z</time></trkpt>
<trkpt lat="46.21073" lon="7.43904"><ele></ele><time>2025-8-26T2:18:14Z</time></trkpt>
<trkpt lat="46.21064" lon="7.43912"><ele></ele><time>2025-8-26T2:18:17Z</time></trkpt>
<trkpt lat="46.21059" lon="7.43918"><ele></ele><time>2025-8-26T2:18:20Z</time></trkpt>
<trkpt lat="46.21052" lon="7.4393"><ele></ele><time>2025-8-26T2:18:23Z</time></trkpt>
<trkpt lat="46.21045" lon="7.43942"><ele></ele><time>2025-8-26T2:18:26Z</time></trkpt>
<trkpt lat="46.2104" lon="7.43951"><ele></ele><time>2025-8-26T2:18:29Z</time></trkpt>
<trkpt lat="46.21037" lon="7.43957"><ele></ele><time>2025-8-26T2:18:32Z</time></trkpt>
<trkpt lat="46.2103" lon="7.43966"><ele></ele><time>2025-8-26T2:18:35Z</time></trkpt>
<trkpt lat="46.21025" lon="7.43973"><ele></ele><time>2025-8-26T2:18:38Z</time></trkpt>
<trkpt lat="46.21018" lon="7.43978"><ele></ele><time>2025-8-26T2:18:41Z</time></trkpt>
<trkpt lat="46.21011" lon="7.43985"><ele></ele><time>2025-8-26T2:18:44Z</time></trkpt>
<trkpt lat="46.21003" lon="7.43995"><ele></ele><time>2025-8-26T2:18:47Z</time></trkpt>
<trkpt lat="46.20998" lon="7.44"><ele></ele><time>2025-8-26T2:18:50Z</time></trkpt>
<trkpt lat="46.20986" lon="7.44011"><ele></ele><time>2025-8-26T2:18:53Z</time></trkpt>
<trkpt lat="46.20985" lon="7.44013"><ele></ele><time>2025-8-26T2:18:56Z</time></trkpt>
<trkpt lat="46.20975" lon="7.44022"><ele></ele><time>2025-8-26T2:18:59Z</time></trkpt>
<trkpt lat="46.20965" lon="7.4403"><ele></ele><time>2025-8-26T2:19:2Z</time></trkpt>
<trkpt lat="46.20961" lon="7.44034"><ele></ele><time>2025-8-26T2:19:5Z</time></trkpt>
<trkpt lat="46.20957" lon="7.44036"><ele></ele><time>2025-8-26T2:19:8Z</time></trkpt>
<trkpt lat="46.20954" lon="7.44038"><ele></ele><time>2025-8-26T2:19:11Z</time></trkpt>
<trkpt lat="46.2095" lon="7.44041"><ele></ele><time>2025-8-26T2:19:14Z</time></trkpt>
<trkpt lat="46.20945" lon="7.44042"><ele></ele><time>2025-8-26T2:19:17Z</time></trkpt>
<trkpt lat="46.20939" lon="7.44042"><ele></ele><time>2025-8-26T2:19:20Z</time></trkpt>
<trkpt lat="46.20931" lon="7.4404"><ele></ele><time>2025-8-26T2:19:23Z</time></trkpt>
<trkpt lat="46.20926" lon="7.44039"><ele></ele><time>2025-8-26T2:19:26Z</time></trkpt>
<trkpt lat="46.20922" lon="7.44038"><ele></ele><time>2025-8-26T2:19:29Z</time></trkpt>
<trkpt lat="46.20914" lon="7.44033"><ele></ele><time>2025-8-26T2:19:32Z</time></trkpt>
<trkpt lat="46.20903" lon="7.44029"><ele></ele><time>2025-8-26T2:19:35Z</time></trkpt>
<trkpt lat="46.20893" lon="7.44029"><ele></ele><time>2025-8-26T2:19:38Z</time></trkpt>
<trkpt lat="46.2089" lon="7.4403"><ele></ele><time>2025-8-26T2:19:41Z</time></trkpt>
<trkpt lat="46.2088" lon="7.44034"><ele></ele><time>2025-8-26T2:19:44Z</time></trkpt>
<trkpt lat="46.20878" lon="7.44035"><ele></ele><time>2025-8-26T2:19:47Z</time></trkpt>
<trkpt lat="46.20865" lon="7.44043"><ele></ele><time>2025-8-26T2:19:50Z</time></trkpt>
<trkpt lat="46.20852" lon="7.44048"><ele></ele><time>2025-8-26T2:19:53Z</time></trkpt>
<trkpt lat="46.20849" lon="7.4405"><ele></ele><time>2025-8-26T2:19:56Z</time></trkpt>
<trkpt lat="46.20841" lon="7.44055"><ele></ele><time>2025-8-26T2:19:59Z</time></trkpt>
<trkpt lat="46.20837" lon="7.44057"><ele></ele><time>2025-8-26T2:20:2Z</time></trkpt>
<trkpt lat="46.20827" lon="7.44063"><ele></ele><time>2025-8-26T2:20:5Z</time></trkpt>
<trkpt lat="46.20823" lon="7.44064"><ele></ele><time>2025-8-26T2:20:8Z</time></trkpt>
<trkpt lat="46.20812" lon="7.44068"><ele></ele><time>2025-8-26T2:20:11Z</time></trkpt>
<trkpt lat="46.20806" lon="7.4407"><ele></ele><time>2025-8-26T2:20:14Z</time></trkpt>
<trkpt lat="46.20797" lon="7.44073"><ele></ele><time>2025-8-26T2:20:17Z</time></trkpt>
<trkpt lat="46.20792" lon="7.44072"><ele></ele><time>2025-8-26T2:20:20Z</time></trkpt>
<trkpt lat="46.20784" lon="7.44072"><ele></ele><time>2025-8-26T2:20:23Z</time></trkpt>
<trkpt lat="46.20777" lon="7.44072"><ele></ele><time>2025-8-26T2:20:26Z</time></trkpt>
<trkpt lat="46.2077" lon="7.44073"><ele></ele><time>2025-8-26T2:20:29Z</time></trkpt>
<trkpt lat="46.20763" lon="7.44072"><ele></ele><time>2025-8-26T2:20:32Z</time></trkpt>
<trkpt lat="46.20758" lon="7.44072"><ele></ele><time>2025-8-26T2:20:35Z</time></trkpt>
<trkpt lat="46.20748" lon="7.44072"><ele></ele><time>2025-8-26T2:20:38Z</time></trkpt>
<trkpt lat="46.20745" lon="7.44072"><ele></ele><time>2025-8-26T2:20:41Z</time></trkpt>
<trkpt lat="46.20729" lon="7.44068"><ele></ele><time>2025-8-26T2:20:44Z</time></trkpt>
<trkpt lat="46.20723" lon="7.44065"><ele></ele><time>2025-8-26T2:20:47Z</time></trkpt>
<trkpt lat="46.2071" lon="7.44059"><ele></ele><time>2025-8-26T2:20:50Z</time></trkpt>
<trkpt lat="46.20709" lon="7.44057"><ele></ele><time>2025-8-26T2:20:53Z</time></trkpt>
<trkpt lat="46.20694" lon="7.4405"><ele></ele><time>2025-8-26T2:20:56Z</time></trkpt>
<trkpt lat="46.20692" lon="7.44048"><ele></ele><time>2025-8-26T2:20:59Z</time></trkpt>
<trkpt lat="46.20675" lon="7.44037"><ele></ele><time>2025-8-26T2:21:2Z</time></trkpt>
<trkpt lat="46.20663" lon="7.44024"><ele></ele><time>2025-8-26T2:21:5Z</time></trkpt>
<trkpt lat="46.20661" lon="7.44021"><ele></ele><time>2025-8-26T2:21:8Z</time></trkpt>
<trkpt lat="46.20647" lon="7.44"><ele></ele><time>2025-8-26T2:21:11Z</time></trkpt>
<trkpt lat="46.20642" lon="7.43992"><ele></ele><time>2025-8-26T2:21:14Z</time></trkpt>
<trkpt lat="46.20642" lon="7.43993"><ele></ele><time>2025-8-26T2:21:17Z</time></trkpt>
<trkpt lat="46.20642" lon="7.43993"><ele></ele><time>2025-8-26T2:21:20Z</time></trkpt>
<trkpt lat="46.20642" lon="7.43993"><ele></ele><time>2025-8-26T2:21:23Z</time></trkpt>
<trkpt lat="46.2064" lon="7.4399"><ele></ele><time>2025-8-26T2:21:26Z</time></trkpt>
<trkpt lat="46.2064" lon="7.4399"><ele></ele><time>2025-8-26T2:21:29Z</time></trkpt>
<trkpt lat="46.2064" lon="7.43988"><ele></ele><time>2025-8-26T2:21:32Z</time></trkpt>
<trkpt lat="46.2064" lon="7.43988"><ele></ele><time>2025-8-26T2:21:35Z</time></trkpt>
<trkpt lat="46.20642" lon="7.43988"><ele></ele><time>2025-8-26T2:21:38Z</time></trkpt>
<trkpt lat="46.20642" lon="7.43989"><ele></ele><time>2025-8-26T2:21:41Z</time></trkpt>
<trkpt lat="46.20642" lon="7.4399"><ele></ele><time>2025-8-26T2:21:44Z</time></trkpt>
<trkpt lat="46.20641" lon="7.4399"><ele></ele><time>2025-8-26T2:21:47Z</time></trkpt>
<trkpt lat="46.20642" lon="7.43991"><ele></ele><time>2025-8-26T2:21:50Z</time></trkpt>
<trkpt lat="46.20641" lon="7.43993"><ele></ele><time>2025-8-26T2:21:53Z</time></trkpt>
<trkpt lat="46.20643" lon="7.43992"><ele></ele><time>2025-8-26T2:21:56Z</time></trkpt>
<trkpt lat="46.20641" lon="7.43988"><ele></ele><time>2025-8-26T2:21:59Z</time></trkpt>
<trkpt lat="46.20642" lon="7.43989"><ele></ele><time>2025-8-26T2:22:2Z</time></trkpt>
</trkseg></trk></gpx>